<?xml version="1.0" encoding="UTF-8" standalone="no" ?>
<gpx xmlns="http://www.topografix.com/GPX/1/1" xmlns:xsi="http://www.w3.org/2001/XMLSchema-instance" xsi:schemaLocation="http://www.topografix.com/GPX/1/1 http://www.topografix.com/GPX/1/1/gpx.xsd" version="1.1" creator="VisuGPX - https://www.visugpx.com">
  <metadata>
    <name>Sauma Longa, En boucle par la Baisse des Gauthiers</name>
    <desc><![CDATA[Superbe série de singles joueurs dans le haut Estéron.]]></desc>
  </metadata>
  <trk>
    <name><![CDATA[ACTIVE LOG 003]]></name>
    <trkseg>
      <trkpt lat="43.88513" lon="6.93806">
        <ele>541.84021</ele>
        <time>2011-10-31T08:23:09Z</time>
      </trkpt>
      <trkpt lat="43.88517" lon="6.93804">
        <ele>545.204834</ele>
        <time>2011-10-31T08:23:41Z</time>
      </trkpt>
      <trkpt lat="43.88517" lon="6.93804">
        <ele>549.5307617</ele>
        <time>2011-10-31T08:23:43Z</time>
      </trkpt>
      <trkpt lat="43.88517" lon="6.93804">
        <ele>556.7407227</ele>
        <time>2011-10-31T08:23:48Z</time>
      </trkpt>
      <trkpt lat="43.88517" lon="6.93804">
        <ele>560.1052246</ele>
        <time>2011-10-31T08:23:50Z</time>
      </trkpt>
      <trkpt lat="43.88517" lon="6.93804">
        <ele>563.4699707</ele>
        <time>2011-10-31T08:23:53Z</time>
      </trkpt>
      <trkpt lat="43.88517" lon="6.93804">
        <ele>567.3151855</ele>
        <time>2011-10-31T08:23:56Z</time>
      </trkpt>
      <trkpt lat="43.88516" lon="6.93804">
        <ele>573.5639648</ele>
        <time>2011-10-31T08:24:02Z</time>
      </trkpt>
      <trkpt lat="43.88516" lon="6.93804">
        <ele>579.8122559</ele>
        <time>2011-10-31T08:24:10Z</time>
      </trkpt>
      <trkpt lat="43.88516" lon="6.93803">
        <ele>586.060791</ele>
        <time>2011-10-31T08:24:22Z</time>
      </trkpt>
      <trkpt lat="43.88516" lon="6.93803">
        <ele>590.8674316</ele>
        <time>2011-10-31T08:24:34Z</time>
      </trkpt>
      <trkpt lat="43.88516" lon="6.93803">
        <ele>596.635498</ele>
        <time>2011-10-31T08:25:06Z</time>
      </trkpt>
      <trkpt lat="43.88522" lon="6.93806">
        <ele>600</ele>
        <time>2011-10-31T08:26:27Z</time>
      </trkpt>
      <trkpt lat="43.88532" lon="6.93808">
        <ele>600</ele>
        <time>2011-10-31T08:26:51Z</time>
      </trkpt>
      <trkpt lat="43.88541" lon="6.93812">
        <ele>600</ele>
        <time>2011-10-31T08:28:27Z</time>
      </trkpt>
      <trkpt lat="43.88552" lon="6.93825">
        <ele>602.4030762</ele>
        <time>2011-10-31T08:28:40Z</time>
      </trkpt>
      <trkpt lat="43.8856" lon="6.93849">
        <ele>602.8837891</ele>
        <time>2011-10-31T08:29:11Z</time>
      </trkpt>
      <trkpt lat="43.88559" lon="6.93873">
        <ele>606.2485352</ele>
        <time>2011-10-31T08:29:25Z</time>
      </trkpt>
      <trkpt lat="43.88561" lon="6.93885">
        <ele>607.6906738</ele>
        <time>2011-10-31T08:29:31Z</time>
      </trkpt>
      <trkpt lat="43.88564" lon="6.93926">
        <ele>612.9777832</ele>
        <time>2011-10-31T08:29:52Z</time>
      </trkpt>
      <trkpt lat="43.88564" lon="6.9394">
        <ele>615.8618164</ele>
        <time>2011-10-31T08:30:01Z</time>
      </trkpt>
      <trkpt lat="43.88566" lon="6.93945">
        <ele>615.8618164</ele>
        <time>2011-10-31T08:30:04Z</time>
      </trkpt>
      <trkpt lat="43.88576" lon="6.93959">
        <ele>619.7070313</ele>
        <time>2011-10-31T08:30:21Z</time>
      </trkpt>
      <trkpt lat="43.88577" lon="6.93959">
        <ele>619.2263184</ele>
        <time>2011-10-31T08:30:47Z</time>
      </trkpt>
      <trkpt lat="43.8858" lon="6.93995">
        <ele>624.9943848</ele>
        <time>2011-10-31T08:31:33Z</time>
      </trkpt>
      <trkpt lat="43.88591" lon="6.94014">
        <ele>628.8395996</ele>
        <time>2011-10-31T08:31:50Z</time>
      </trkpt>
      <trkpt lat="43.8859" lon="6.9404">
        <ele>634.126709</ele>
        <time>2011-10-31T08:32:12Z</time>
      </trkpt>
      <trkpt lat="43.88587" lon="6.9405">
        <ele>635.0881348</ele>
        <time>2011-10-31T08:32:50Z</time>
      </trkpt>
      <trkpt lat="43.88581" lon="6.94063">
        <ele>639.4140625</ele>
        <time>2011-10-31T08:33:04Z</time>
      </trkpt>
      <trkpt lat="43.88581" lon="6.94083">
        <ele>643.2592773</ele>
        <time>2011-10-31T08:33:22Z</time>
      </trkpt>
      <trkpt lat="43.88564" lon="6.94104">
        <ele>648.5463867</ele>
        <time>2011-10-31T08:33:50Z</time>
      </trkpt>
      <trkpt lat="43.88551" lon="6.94107">
        <ele>653.3532715</ele>
        <time>2011-10-31T08:34:10Z</time>
      </trkpt>
      <trkpt lat="43.88549" lon="6.94105">
        <ele>653.8339844</ele>
        <time>2011-10-31T08:34:17Z</time>
      </trkpt>
      <trkpt lat="43.88524" lon="6.94091">
        <ele>659.6018066</ele>
        <time>2011-10-31T08:34:47Z</time>
      </trkpt>
      <trkpt lat="43.88512" lon="6.94081">
        <ele>665.8503418</ele>
        <time>2011-10-31T08:35:15Z</time>
      </trkpt>
      <trkpt lat="43.88503" lon="6.94068">
        <ele>669.2150879</ele>
        <time>2011-10-31T08:35:32Z</time>
      </trkpt>
      <trkpt lat="43.88483" lon="6.94041">
        <ele>675.4633789</ele>
        <time>2011-10-31T08:36:06Z</time>
      </trkpt>
      <trkpt lat="43.88481" lon="6.94038">
        <ele>675.9440918</ele>
        <time>2011-10-31T08:36:56Z</time>
      </trkpt>
      <trkpt lat="43.88477" lon="6.94037">
        <ele>677.3862305</ele>
        <time>2011-10-31T08:37:15Z</time>
      </trkpt>
      <trkpt lat="43.88461" lon="6.94025">
        <ele>681.2314453</ele>
        <time>2011-10-31T08:37:32Z</time>
      </trkpt>
      <trkpt lat="43.8846" lon="6.94027">
        <ele>681.2314453</ele>
        <time>2011-10-31T08:37:34Z</time>
      </trkpt>
      <trkpt lat="43.88468" lon="6.94055">
        <ele>686.5187988</ele>
        <time>2011-10-31T08:38:01Z</time>
      </trkpt>
      <trkpt lat="43.88471" lon="6.94061">
        <ele>687.4799805</ele>
        <time>2011-10-31T08:38:08Z</time>
      </trkpt>
      <trkpt lat="43.88468" lon="6.94068">
        <ele>687.4799805</ele>
        <time>2011-10-31T08:38:13Z</time>
      </trkpt>
      <trkpt lat="43.8847" lon="6.94097">
        <ele>691.8059082</ele>
        <time>2011-10-31T08:38:36Z</time>
      </trkpt>
      <trkpt lat="43.88469" lon="6.94108">
        <ele>692.767334</ele>
        <time>2011-10-31T08:38:48Z</time>
      </trkpt>
      <trkpt lat="43.88468" lon="6.94112">
        <ele>693.7285156</ele>
        <time>2011-10-31T08:38:50Z</time>
      </trkpt>
      <trkpt lat="43.88463" lon="6.94169">
        <ele>698.0544434</ele>
        <time>2011-10-31T08:39:15Z</time>
      </trkpt>
      <trkpt lat="43.88457" lon="6.94209">
        <ele>703.8225098</ele>
        <time>2011-10-31T08:39:58Z</time>
      </trkpt>
      <trkpt lat="43.88455" lon="6.94195">
        <ele>707.1870117</ele>
        <time>2011-10-31T08:40:14Z</time>
      </trkpt>
      <trkpt lat="43.88449" lon="6.94177">
        <ele>711.5129395</ele>
        <time>2011-10-31T08:40:37Z</time>
      </trkpt>
      <trkpt lat="43.88442" lon="6.94162">
        <ele>715.3581543</ele>
        <time>2011-10-31T08:40:54Z</time>
      </trkpt>
      <trkpt lat="43.88426" lon="6.9413">
        <ele>721.1262207</ele>
        <time>2011-10-31T08:41:30Z</time>
      </trkpt>
      <trkpt lat="43.88405" lon="6.94113">
        <ele>727.3747559</ele>
        <time>2011-10-31T08:42:02Z</time>
      </trkpt>
      <trkpt lat="43.88391" lon="6.941">
        <ele>732.6621094</ele>
        <time>2011-10-31T08:42:39Z</time>
      </trkpt>
      <trkpt lat="43.88384" lon="6.94097">
        <ele>736.0266113</ele>
        <time>2011-10-31T08:43:07Z</time>
      </trkpt>
      <trkpt lat="43.88384" lon="6.9412">
        <ele>740.3525391</ele>
        <time>2011-10-31T08:43:35Z</time>
      </trkpt>
      <trkpt lat="43.88386" lon="6.94154">
        <ele>745.6396484</ele>
        <time>2011-10-31T08:44:10Z</time>
      </trkpt>
      <trkpt lat="43.8839" lon="6.94172">
        <ele>748.0432129</ele>
        <time>2011-10-31T08:44:24Z</time>
      </trkpt>
      <trkpt lat="43.88387" lon="6.94201">
        <ele>752.8496094</ele>
        <time>2011-10-31T08:44:49Z</time>
      </trkpt>
      <trkpt lat="43.88381" lon="6.94211">
        <ele>756.2141113</ele>
        <time>2011-10-31T08:45:05Z</time>
      </trkpt>
      <trkpt lat="43.88377" lon="6.94193">
        <ele>759.5788574</ele>
        <time>2011-10-31T08:45:27Z</time>
      </trkpt>
      <trkpt lat="43.88364" lon="6.94185">
        <ele>765.3469238</ele>
        <time>2011-10-31T08:45:58Z</time>
      </trkpt>
      <trkpt lat="43.8836" lon="6.94202">
        <ele>768.7114258</ele>
        <time>2011-10-31T08:46:15Z</time>
      </trkpt>
      <trkpt lat="43.88353" lon="6.94228">
        <ele>772.5566406</ele>
        <time>2011-10-31T08:46:41Z</time>
      </trkpt>
      <trkpt lat="43.88347" lon="6.94258">
        <ele>777.3632813</ele>
        <time>2011-10-31T08:47:10Z</time>
      </trkpt>
      <trkpt lat="43.88335" lon="6.9429">
        <ele>783.6118164</ele>
        <time>2011-10-31T08:47:45Z</time>
      </trkpt>
      <trkpt lat="43.88329" lon="6.94333">
        <ele>788.418457</ele>
        <time>2011-10-31T08:48:24Z</time>
      </trkpt>
      <trkpt lat="43.88325" lon="6.94352">
        <ele>791.782959</ele>
        <time>2011-10-31T08:48:40Z</time>
      </trkpt>
      <trkpt lat="43.88325" lon="6.94371">
        <ele>795.1474609</ele>
        <time>2011-10-31T08:48:57Z</time>
      </trkpt>
      <trkpt lat="43.88316" lon="6.944">
        <ele>799.9543457</ele>
        <time>2011-10-31T08:49:23Z</time>
      </trkpt>
      <trkpt lat="43.88317" lon="6.94401">
        <ele>799.9543457</ele>
        <time>2011-10-31T08:49:24Z</time>
      </trkpt>
      <trkpt lat="43.88316" lon="6.94412">
        <ele>801.3962402</ele>
        <time>2011-10-31T08:49:40Z</time>
      </trkpt>
      <trkpt lat="43.88307" lon="6.94433">
        <ele>804.2802734</ele>
        <time>2011-10-31T08:50:01Z</time>
      </trkpt>
      <trkpt lat="43.88304" lon="6.94481">
        <ele>809.0866699</ele>
        <time>2011-10-31T08:50:27Z</time>
      </trkpt>
      <trkpt lat="43.88303" lon="6.94526">
        <ele>813.8933105</ele>
        <time>2011-10-31T08:51:16Z</time>
      </trkpt>
      <trkpt lat="43.88303" lon="6.94567">
        <ele>817.7385254</ele>
        <time>2011-10-31T08:51:45Z</time>
      </trkpt>
      <trkpt lat="43.88296" lon="6.94598">
        <ele>822.0644531</ele>
        <time>2011-10-31T08:52:13Z</time>
      </trkpt>
      <trkpt lat="43.88295" lon="6.94621">
        <ele>825.4289551</ele>
        <time>2011-10-31T08:52:31Z</time>
      </trkpt>
      <trkpt lat="43.88289" lon="6.9465">
        <ele>828.7939453</ele>
        <time>2011-10-31T08:52:54Z</time>
      </trkpt>
      <trkpt lat="43.88284" lon="6.94687">
        <ele>833.1196289</ele>
        <time>2011-10-31T08:53:22Z</time>
      </trkpt>
      <trkpt lat="43.88275" lon="6.94714">
        <ele>836.484375</ele>
        <time>2011-10-31T08:54:01Z</time>
      </trkpt>
      <trkpt lat="43.88272" lon="6.94743">
        <ele>838.4069824</ele>
        <time>2011-10-31T08:54:12Z</time>
      </trkpt>
      <trkpt lat="43.88269" lon="6.94747">
        <ele>838.4069824</ele>
        <time>2011-10-31T08:54:14Z</time>
      </trkpt>
      <trkpt lat="43.88262" lon="6.94768">
        <ele>842.2521973</ele>
        <time>2011-10-31T08:54:23Z</time>
      </trkpt>
      <trkpt lat="43.88267" lon="6.948">
        <ele>844.6555176</ele>
        <time>2011-10-31T08:54:36Z</time>
      </trkpt>
      <trkpt lat="43.88266" lon="6.94823">
        <ele>847.0588379</ele>
        <time>2011-10-31T08:54:53Z</time>
      </trkpt>
      <trkpt lat="43.88259" lon="6.94816">
        <ele>852.3459473</ele>
        <time>2011-10-31T08:55:27Z</time>
      </trkpt>
      <trkpt lat="43.88249" lon="6.94801">
        <ele>855.7106934</ele>
        <time>2011-10-31T08:55:45Z</time>
      </trkpt>
      <trkpt lat="43.88244" lon="6.94789">
        <ele>859.0751953</ele>
        <time>2011-10-31T08:56:02Z</time>
      </trkpt>
      <trkpt lat="43.88242" lon="6.94773">
        <ele>862.4399414</ele>
        <time>2011-10-31T08:56:21Z</time>
      </trkpt>
      <trkpt lat="43.88236" lon="6.94754">
        <ele>868.6884766</ele>
        <time>2011-10-31T08:56:57Z</time>
      </trkpt>
      <trkpt lat="43.88233" lon="6.9476">
        <ele>870.611084</ele>
        <time>2011-10-31T08:58:53Z</time>
      </trkpt>
      <trkpt lat="43.8823" lon="6.94772">
        <ele>873.9755859</ele>
        <time>2011-10-31T08:59:08Z</time>
      </trkpt>
      <trkpt lat="43.88225" lon="6.94796">
        <ele>879.2629395</ele>
        <time>2011-10-31T09:00:14Z</time>
      </trkpt>
      <trkpt lat="43.88224" lon="6.94813">
        <ele>881.6662598</ele>
        <time>2011-10-31T09:00:34Z</time>
      </trkpt>
      <trkpt lat="43.88225" lon="6.94819">
        <ele>882.6276855</ele>
        <time>2011-10-31T09:00:39Z</time>
      </trkpt>
      <trkpt lat="43.88224" lon="6.94822">
        <ele>882.6276855</ele>
        <time>2011-10-31T09:00:42Z</time>
      </trkpt>
      <trkpt lat="43.88222" lon="6.94833">
        <ele>883.5888672</ele>
        <time>2011-10-31T09:00:50Z</time>
      </trkpt>
      <trkpt lat="43.88216" lon="6.9487">
        <ele>888.3955078</ele>
        <time>2011-10-31T09:01:18Z</time>
      </trkpt>
      <trkpt lat="43.88208" lon="6.94895">
        <ele>892.2409668</ele>
        <time>2011-10-31T09:01:42Z</time>
      </trkpt>
      <trkpt lat="43.88203" lon="6.94911">
        <ele>895.6054688</ele>
        <time>2011-10-31T09:01:57Z</time>
      </trkpt>
      <trkpt lat="43.88193" lon="6.9494">
        <ele>901.8540039</ele>
        <time>2011-10-31T09:02:28Z</time>
      </trkpt>
      <trkpt lat="43.88181" lon="6.94968">
        <ele>908.1027832</ele>
        <time>2011-10-31T09:03:00Z</time>
      </trkpt>
      <trkpt lat="43.88177" lon="6.94984">
        <ele>911.4672852</ele>
        <time>2011-10-31T09:03:17Z</time>
      </trkpt>
      <trkpt lat="43.88168" lon="6.95019">
        <ele>916.7543945</ele>
        <time>2011-10-31T09:03:51Z</time>
      </trkpt>
      <trkpt lat="43.88166" lon="6.95049">
        <ele>920.1188965</ele>
        <time>2011-10-31T09:04:24Z</time>
      </trkpt>
      <trkpt lat="43.88163" lon="6.95095">
        <ele>924.4450684</ele>
        <time>2011-10-31T09:05:14Z</time>
      </trkpt>
      <trkpt lat="43.88162" lon="6.95117">
        <ele>927.3291016</ele>
        <time>2011-10-31T09:05:38Z</time>
      </trkpt>
      <trkpt lat="43.88157" lon="6.95155">
        <ele>929.7321777</ele>
        <time>2011-10-31T09:06:02Z</time>
      </trkpt>
      <trkpt lat="43.88154" lon="6.95174">
        <ele>932.135498</ele>
        <time>2011-10-31T09:06:10Z</time>
      </trkpt>
      <trkpt lat="43.88155" lon="6.95182">
        <ele>933.5773926</ele>
        <time>2011-10-31T09:06:14Z</time>
      </trkpt>
      <trkpt lat="43.88158" lon="6.95199">
        <ele>935.0195313</ele>
        <time>2011-10-31T09:06:23Z</time>
      </trkpt>
      <trkpt lat="43.88156" lon="6.95212">
        <ele>936.4614258</ele>
        <time>2011-10-31T09:06:29Z</time>
      </trkpt>
      <trkpt lat="43.88156" lon="6.95231">
        <ele>937.4226074</ele>
        <time>2011-10-31T09:06:36Z</time>
      </trkpt>
      <trkpt lat="43.88156" lon="6.95255">
        <ele>940.3068848</ele>
        <time>2011-10-31T09:06:46Z</time>
      </trkpt>
      <trkpt lat="43.88157" lon="6.95281">
        <ele>942.7102051</ele>
        <time>2011-10-31T09:06:56Z</time>
      </trkpt>
      <trkpt lat="43.88161" lon="6.95326">
        <ele>946.5554199</ele>
        <time>2011-10-31T09:07:26Z</time>
      </trkpt>
      <trkpt lat="43.8816" lon="6.9533">
        <ele>946.5554199</ele>
        <time>2011-10-31T09:07:39Z</time>
      </trkpt>
      <trkpt lat="43.88155" lon="6.95352">
        <ele>947.9973145</ele>
        <time>2011-10-31T09:07:59Z</time>
      </trkpt>
      <trkpt lat="43.88162" lon="6.95404">
        <ele>951.8425293</ele>
        <time>2011-10-31T09:08:23Z</time>
      </trkpt>
      <trkpt lat="43.88163" lon="6.95445">
        <ele>953.7651367</ele>
        <time>2011-10-31T09:09:11Z</time>
      </trkpt>
      <trkpt lat="43.88162" lon="6.95454">
        <ele>954.2458496</ele>
        <time>2011-10-31T09:09:31Z</time>
      </trkpt>
      <trkpt lat="43.88162" lon="6.9547">
        <ele>953.7651367</ele>
        <time>2011-10-31T09:09:49Z</time>
      </trkpt>
      <trkpt lat="43.88163" lon="6.95494">
        <ele>953.2844238</ele>
        <time>2011-10-31T09:10:46Z</time>
      </trkpt>
      <trkpt lat="43.88168" lon="6.95549">
        <ele>951.8425293</ele>
        <time>2011-10-31T09:11:05Z</time>
      </trkpt>
      <trkpt lat="43.88173" lon="6.95571">
        <ele>950.8811035</ele>
        <time>2011-10-31T09:11:11Z</time>
      </trkpt>
      <trkpt lat="43.88189" lon="6.9568">
        <ele>947.9973145</ele>
        <time>2011-10-31T09:11:40Z</time>
      </trkpt>
      <trkpt lat="43.88205" lon="6.95799">
        <ele>943.6713867</ele>
        <time>2011-10-31T09:12:09Z</time>
      </trkpt>
      <trkpt lat="43.88207" lon="6.9586">
        <ele>943.1906738</ele>
        <time>2011-10-31T09:12:22Z</time>
      </trkpt>
      <trkpt lat="43.88212" lon="6.95929">
        <ele>945.5939941</ele>
        <time>2011-10-31T09:12:38Z</time>
      </trkpt>
      <trkpt lat="43.88233" lon="6.95982">
        <ele>946.5554199</ele>
        <time>2011-10-31T09:12:49Z</time>
      </trkpt>
      <trkpt lat="43.88242" lon="6.96009">
        <ele>947.9973145</ele>
        <time>2011-10-31T09:12:56Z</time>
      </trkpt>
      <trkpt lat="43.88242" lon="6.96073">
        <ele>951.8425293</ele>
        <time>2011-10-31T09:13:13Z</time>
      </trkpt>
      <trkpt lat="43.88242" lon="6.96091">
        <ele>952.322998</ele>
        <time>2011-10-31T09:13:19Z</time>
      </trkpt>
      <trkpt lat="43.8824" lon="6.96108">
        <ele>952.322998</ele>
        <time>2011-10-31T09:13:24Z</time>
      </trkpt>
      <trkpt lat="43.88221" lon="6.96165">
        <ele>949.9199219</ele>
        <time>2011-10-31T09:13:39Z</time>
      </trkpt>
      <trkpt lat="43.88213" lon="6.96243">
        <ele>946.5554199</ele>
        <time>2011-10-31T09:14:10Z</time>
      </trkpt>
      <trkpt lat="43.88217" lon="6.96336">
        <ele>943.6713867</ele>
        <time>2011-10-31T09:14:43Z</time>
      </trkpt>
      <trkpt lat="43.88233" lon="6.96419">
        <ele>940.7873535</ele>
        <time>2011-10-31T09:15:12Z</time>
      </trkpt>
      <trkpt lat="43.88247" lon="6.96483">
        <ele>939.8259277</ele>
        <time>2011-10-31T09:15:40Z</time>
      </trkpt>
      <trkpt lat="43.88279" lon="6.96658">
        <ele>937.9033203</ele>
        <time>2011-10-31T09:16:18Z</time>
      </trkpt>
      <trkpt lat="43.88284" lon="6.96671">
        <ele>938.3840332</ele>
        <time>2011-10-31T09:16:21Z</time>
      </trkpt>
      <trkpt lat="43.88282" lon="6.96757">
        <ele>939.3452148</ele>
        <time>2011-10-31T09:16:48Z</time>
      </trkpt>
      <trkpt lat="43.88294" lon="6.96817">
        <ele>939.8259277</ele>
        <time>2011-10-31T09:17:06Z</time>
      </trkpt>
      <trkpt lat="43.883" lon="6.96893">
        <ele>938.3840332</ele>
        <time>2011-10-31T09:17:23Z</time>
      </trkpt>
      <trkpt lat="43.8832" lon="6.97012">
        <ele>935.9807129</ele>
        <time>2011-10-31T09:17:59Z</time>
      </trkpt>
      <trkpt lat="43.88337" lon="6.97109">
        <ele>935.0195313</ele>
        <time>2011-10-31T09:18:57Z</time>
      </trkpt>
      <trkpt lat="43.88343" lon="6.97169">
        <ele>931.6547852</ele>
        <time>2011-10-31T09:19:07Z</time>
      </trkpt>
      <trkpt lat="43.88343" lon="6.97169">
        <ele>930.2128906</ele>
        <time>2011-10-31T09:19:19Z</time>
      </trkpt>
      <trkpt lat="43.88343" lon="6.9723">
        <ele>928.2902832</ele>
        <time>2011-10-31T09:19:45Z</time>
      </trkpt>
      <trkpt lat="43.88346" lon="6.97283">
        <ele>923.0029297</ele>
        <time>2011-10-31T09:20:17Z</time>
      </trkpt>
      <trkpt lat="43.88363" lon="6.9734">
        <ele>918.1962891</ele>
        <time>2011-10-31T09:20:41Z</time>
      </trkpt>
      <trkpt lat="43.88373" lon="6.97371">
        <ele>914.8317871</ele>
        <time>2011-10-31T09:20:52Z</time>
      </trkpt>
      <trkpt lat="43.88381" lon="6.974">
        <ele>911.4672852</ele>
        <time>2011-10-31T09:20:59Z</time>
      </trkpt>
      <trkpt lat="43.88386" lon="6.97421">
        <ele>908.1027832</ele>
        <time>2011-10-31T09:21:04Z</time>
      </trkpt>
      <trkpt lat="43.88399" lon="6.97457">
        <ele>904.2573242</ele>
        <time>2011-10-31T09:21:25Z</time>
      </trkpt>
      <trkpt lat="43.8841" lon="6.97486">
        <ele>899.4506836</ele>
        <time>2011-10-31T09:21:34Z</time>
      </trkpt>
      <trkpt lat="43.88412" lon="6.97489">
        <ele>899.4506836</ele>
        <time>2011-10-31T09:21:35Z</time>
      </trkpt>
      <trkpt lat="43.88429" lon="6.97529">
        <ele>894.1635742</ele>
        <time>2011-10-31T09:21:44Z</time>
      </trkpt>
      <trkpt lat="43.88442" lon="6.97562">
        <ele>890.798584</ele>
        <time>2011-10-31T09:21:51Z</time>
      </trkpt>
      <trkpt lat="43.88457" lon="6.97611">
        <ele>886.9533691</ele>
        <time>2011-10-31T09:22:08Z</time>
      </trkpt>
      <trkpt lat="43.8846" lon="6.97627">
        <ele>884.550293</ele>
        <time>2011-10-31T09:22:31Z</time>
      </trkpt>
      <trkpt lat="43.88467" lon="6.97669">
        <ele>881.6662598</ele>
        <time>2011-10-31T09:22:51Z</time>
      </trkpt>
      <trkpt lat="43.88469" lon="6.97696">
        <ele>880.7050781</ele>
        <time>2011-10-31T09:23:36Z</time>
      </trkpt>
      <trkpt lat="43.88469" lon="6.97696">
        <ele>879.7436523</ele>
        <time>2011-10-31T09:23:44Z</time>
      </trkpt>
      <trkpt lat="43.88505" lon="6.97724">
        <ele>875.8981934</ele>
        <time>2011-10-31T09:24:02Z</time>
      </trkpt>
      <trkpt lat="43.88505" lon="6.97724">
        <ele>874.4562988</ele>
        <time>2011-10-31T09:24:04Z</time>
      </trkpt>
      <trkpt lat="43.88518" lon="6.97752">
        <ele>870.611084</ele>
        <time>2011-10-31T09:24:13Z</time>
      </trkpt>
      <trkpt lat="43.8853" lon="6.97783">
        <ele>866.7658691</ele>
        <time>2011-10-31T09:24:20Z</time>
      </trkpt>
      <trkpt lat="43.88542" lon="6.97816">
        <ele>862.9206543</ele>
        <time>2011-10-31T09:24:28Z</time>
      </trkpt>
      <trkpt lat="43.88543" lon="6.9782">
        <ele>862.9206543</ele>
        <time>2011-10-31T09:24:29Z</time>
      </trkpt>
      <trkpt lat="43.88552" lon="6.97841">
        <ele>860.517334</ele>
        <time>2011-10-31T09:24:33Z</time>
      </trkpt>
      <trkpt lat="43.88564" lon="6.97895">
        <ele>857.1525879</ele>
        <time>2011-10-31T09:24:41Z</time>
      </trkpt>
      <trkpt lat="43.88579" lon="6.97973">
        <ele>853.307373</ele>
        <time>2011-10-31T09:24:50Z</time>
      </trkpt>
      <trkpt lat="43.88611" lon="6.98062">
        <ele>848.5007324</ele>
        <time>2011-10-31T09:25:02Z</time>
      </trkpt>
      <trkpt lat="43.88622" lon="6.981">
        <ele>848.0202637</ele>
        <time>2011-10-31T09:25:06Z</time>
      </trkpt>
      <trkpt lat="43.88631" lon="6.98133">
        <ele>847.0588379</ele>
        <time>2011-10-31T09:25:10Z</time>
      </trkpt>
      <trkpt lat="43.88672" lon="6.98214">
        <ele>848.5007324</ele>
        <time>2011-10-31T09:25:50Z</time>
      </trkpt>
      <trkpt lat="43.88707" lon="6.9828">
        <ele>853.307373</ele>
        <time>2011-10-31T09:26:33Z</time>
      </trkpt>
      <trkpt lat="43.88723" lon="6.98371">
        <ele>859.0751953</ele>
        <time>2011-10-31T09:27:06Z</time>
      </trkpt>
      <trkpt lat="43.88732" lon="6.9842">
        <ele>861.4787598</ele>
        <time>2011-10-31T09:27:25Z</time>
      </trkpt>
      <trkpt lat="43.88757" lon="6.98461">
        <ele>857.6333008</ele>
        <time>2011-10-31T09:27:36Z</time>
      </trkpt>
      <trkpt lat="43.88764" lon="6.9847">
        <ele>856.671875</ele>
        <time>2011-10-31T09:27:38Z</time>
      </trkpt>
      <trkpt lat="43.88788" lon="6.98502">
        <ele>852.3459473</ele>
        <time>2011-10-31T09:27:44Z</time>
      </trkpt>
      <trkpt lat="43.88792" lon="6.98506">
        <ele>852.3459473</ele>
        <time>2011-10-31T09:27:45Z</time>
      </trkpt>
      <trkpt lat="43.88808" lon="6.98557">
        <ele>848.0202637</ele>
        <time>2011-10-31T09:27:52Z</time>
      </trkpt>
      <trkpt lat="43.88835" lon="6.986">
        <ele>843.2133789</ele>
        <time>2011-10-31T09:27:59Z</time>
      </trkpt>
      <trkpt lat="43.88837" lon="6.98614">
        <ele>843.2133789</ele>
        <time>2011-10-31T09:28:01Z</time>
      </trkpt>
      <trkpt lat="43.88857" lon="6.98705">
        <ele>841.7714844</ele>
        <time>2011-10-31T09:28:17Z</time>
      </trkpt>
      <trkpt lat="43.88881" lon="6.98738">
        <ele>837.4455566</ele>
        <time>2011-10-31T09:28:25Z</time>
      </trkpt>
      <trkpt lat="43.88894" lon="6.98748">
        <ele>837.4455566</ele>
        <time>2011-10-31T09:28:28Z</time>
      </trkpt>
      <trkpt lat="43.88922" lon="6.9879">
        <ele>838.8876953</ele>
        <time>2011-10-31T09:28:38Z</time>
      </trkpt>
      <trkpt lat="43.88929" lon="6.98857">
        <ele>835.5229492</ele>
        <time>2011-10-31T09:28:50Z</time>
      </trkpt>
      <trkpt lat="43.88955" lon="6.98904">
        <ele>830.7165527</ele>
        <time>2011-10-31T09:28:57Z</time>
      </trkpt>
      <trkpt lat="43.88974" lon="6.98945">
        <ele>826.8710938</ele>
        <time>2011-10-31T09:29:03Z</time>
      </trkpt>
      <trkpt lat="43.88985" lon="6.98956">
        <ele>823.5065918</ele>
        <time>2011-10-31T09:29:05Z</time>
      </trkpt>
      <trkpt lat="43.88991" lon="6.9896">
        <ele>823.5065918</ele>
        <time>2011-10-31T09:29:06Z</time>
      </trkpt>
      <trkpt lat="43.89001" lon="6.98965">
        <ele>823.5065918</ele>
        <time>2011-10-31T09:29:08Z</time>
      </trkpt>
      <trkpt lat="43.89011" lon="6.9897">
        <ele>820.6225586</ele>
        <time>2011-10-31T09:29:10Z</time>
      </trkpt>
      <trkpt lat="43.89013" lon="6.98992">
        <ele>816.7773438</ele>
        <time>2011-10-31T09:29:24Z</time>
      </trkpt>
      <trkpt lat="43.89013" lon="6.98992">
        <ele>817.7385254</ele>
        <time>2011-10-31T09:29:50Z</time>
      </trkpt>
      <trkpt lat="43.88989" lon="6.98977">
        <ele>814.3740234</ele>
        <time>2011-10-31T09:30:00Z</time>
      </trkpt>
      <trkpt lat="43.88992" lon="6.99005">
        <ele>812.9321289</ele>
        <time>2011-10-31T09:30:08Z</time>
      </trkpt>
      <trkpt lat="43.88999" lon="6.99007">
        <ele>809.5673828</ele>
        <time>2011-10-31T09:30:15Z</time>
      </trkpt>
      <trkpt lat="43.88988" lon="6.99004">
        <ele>808.1254883</ele>
        <time>2011-10-31T09:30:18Z</time>
      </trkpt>
      <trkpt lat="43.88967" lon="6.98997">
        <ele>804.2802734</ele>
        <time>2011-10-31T09:30:23Z</time>
      </trkpt>
      <trkpt lat="43.88972" lon="6.99013">
        <ele>801.8769531</ele>
        <time>2011-10-31T09:30:30Z</time>
      </trkpt>
      <trkpt lat="43.88981" lon="6.9904">
        <ele>798.0317383</ele>
        <time>2011-10-31T09:30:39Z</time>
      </trkpt>
      <trkpt lat="43.88956" lon="6.99032">
        <ele>794.666748</ele>
        <time>2011-10-31T09:30:44Z</time>
      </trkpt>
      <trkpt lat="43.88966" lon="6.99055">
        <ele>791.782959</ele>
        <time>2011-10-31T09:30:51Z</time>
      </trkpt>
      <trkpt lat="43.88987" lon="6.99076">
        <ele>788.8991699</ele>
        <time>2011-10-31T09:30:55Z</time>
      </trkpt>
      <trkpt lat="43.89014" lon="6.99072">
        <ele>785.5344238</ele>
        <time>2011-10-31T09:30:59Z</time>
      </trkpt>
      <trkpt lat="43.89032" lon="6.99105">
        <ele>781.2087402</ele>
        <time>2011-10-31T09:31:08Z</time>
      </trkpt>
      <trkpt lat="43.89032" lon="6.99144">
        <ele>778.3244629</ele>
        <time>2011-10-31T09:31:12Z</time>
      </trkpt>
      <trkpt lat="43.8906" lon="6.99226">
        <ele>773.9985352</ele>
        <time>2011-10-31T09:31:21Z</time>
      </trkpt>
      <trkpt lat="43.89039" lon="6.99284">
        <ele>770.1533203</ele>
        <time>2011-10-31T09:31:29Z</time>
      </trkpt>
      <trkpt lat="43.89032" lon="6.99302">
        <ele>767.2695313</ele>
        <time>2011-10-31T09:31:31Z</time>
      </trkpt>
      <trkpt lat="43.89023" lon="6.99335">
        <ele>768.7114258</ele>
        <time>2011-10-31T09:31:35Z</time>
      </trkpt>
      <trkpt lat="43.89064" lon="6.99462">
        <ele>766.7888184</ele>
        <time>2011-10-31T09:31:52Z</time>
      </trkpt>
      <trkpt lat="43.89121" lon="6.99473">
        <ele>771.5952148</ele>
        <time>2011-10-31T09:32:09Z</time>
      </trkpt>
      <trkpt lat="43.89136" lon="6.99474">
        <ele>771.5952148</ele>
        <time>2011-10-31T09:32:14Z</time>
      </trkpt>
      <trkpt lat="43.8913" lon="6.99519">
        <ele>771.1147461</ele>
        <time>2011-10-31T09:32:24Z</time>
      </trkpt>
      <trkpt lat="43.89136" lon="6.99567">
        <ele>767.75</ele>
        <time>2011-10-31T09:32:31Z</time>
      </trkpt>
      <trkpt lat="43.89149" lon="6.99609">
        <ele>763.4240723</ele>
        <time>2011-10-31T09:32:37Z</time>
      </trkpt>
      <trkpt lat="43.89152" lon="6.99616">
        <ele>763.4240723</ele>
        <time>2011-10-31T09:32:38Z</time>
      </trkpt>
      <trkpt lat="43.89158" lon="6.99648">
        <ele>760.0593262</ele>
        <time>2011-10-31T09:32:42Z</time>
      </trkpt>
      <trkpt lat="43.89177" lon="6.99696">
        <ele>756.2141113</ele>
        <time>2011-10-31T09:32:49Z</time>
      </trkpt>
      <trkpt lat="43.89205" lon="6.99713">
        <ele>755.2529297</ele>
        <time>2011-10-31T09:32:56Z</time>
      </trkpt>
      <trkpt lat="43.89244" lon="6.99737">
        <ele>751.4077148</ele>
        <time>2011-10-31T09:33:07Z</time>
      </trkpt>
      <trkpt lat="43.89234" lon="6.99751">
        <ele>752.3688965</ele>
        <time>2011-10-31T09:33:12Z</time>
      </trkpt>
      <trkpt lat="43.89231" lon="6.99778">
        <ele>756.2141113</ele>
        <time>2011-10-31T09:33:21Z</time>
      </trkpt>
      <trkpt lat="43.89238" lon="6.99863">
        <ele>755.2529297</ele>
        <time>2011-10-31T09:33:41Z</time>
      </trkpt>
      <trkpt lat="43.89241" lon="6.99876">
        <ele>753.8110352</ele>
        <time>2011-10-31T09:33:43Z</time>
      </trkpt>
      <trkpt lat="43.89229" lon="6.99902">
        <ele>752.8496094</ele>
        <time>2011-10-31T09:33:48Z</time>
      </trkpt>
      <trkpt lat="43.89214" lon="6.99929">
        <ele>749.0043945</ele>
        <time>2011-10-31T09:33:53Z</time>
      </trkpt>
      <trkpt lat="43.89203" lon="6.99969">
        <ele>745.1589355</ele>
        <time>2011-10-31T09:33:58Z</time>
      </trkpt>
      <trkpt lat="43.89168" lon="7.00003">
        <ele>739.3911133</ele>
        <time>2011-10-31T09:34:05Z</time>
      </trkpt>
      <trkpt lat="43.89141" lon="7.00056">
        <ele>733.623291</ele>
        <time>2011-10-31T09:34:12Z</time>
      </trkpt>
      <trkpt lat="43.8916" lon="7.00148">
        <ele>732.1813965</ele>
        <time>2011-10-31T09:34:25Z</time>
      </trkpt>
      <trkpt lat="43.89161" lon="7.0023">
        <ele>727.8552246</ele>
        <time>2011-10-31T09:34:35Z</time>
      </trkpt>
      <trkpt lat="43.89169" lon="7.0028">
        <ele>724.4907227</ele>
        <time>2011-10-31T09:34:40Z</time>
      </trkpt>
      <trkpt lat="43.89175" lon="7.00322">
        <ele>720.6455078</ele>
        <time>2011-10-31T09:34:45Z</time>
      </trkpt>
      <trkpt lat="43.89178" lon="7.00361">
        <ele>716.800293</ele>
        <time>2011-10-31T09:34:50Z</time>
      </trkpt>
      <trkpt lat="43.8919" lon="7.0041">
        <ele>711.9936523</ele>
        <time>2011-10-31T09:34:56Z</time>
      </trkpt>
      <trkpt lat="43.89192" lon="7.00448">
        <ele>707.6677246</ele>
        <time>2011-10-31T09:35:05Z</time>
      </trkpt>
      <trkpt lat="43.89191" lon="7.00451">
        <ele>707.6677246</ele>
        <time>2011-10-31T09:35:06Z</time>
      </trkpt>
      <trkpt lat="43.8919" lon="7.00455">
        <ele>709.590332</ele>
        <time>2011-10-31T09:35:50Z</time>
      </trkpt>
      <trkpt lat="43.8919" lon="7.00455">
        <ele>709.1096191</ele>
        <time>2011-10-31T09:35:59Z</time>
      </trkpt>
      <trkpt lat="43.89182" lon="7.00475">
        <ele>707.1870117</ele>
        <time>2011-10-31T09:36:11Z</time>
      </trkpt>
      <trkpt lat="43.89179" lon="7.00482">
        <ele>705.7451172</ele>
        <time>2011-10-31T09:36:17Z</time>
      </trkpt>
      <trkpt lat="43.89177" lon="7.00536">
        <ele>703.3417969</ele>
        <time>2011-10-31T09:36:25Z</time>
      </trkpt>
      <trkpt lat="43.89163" lon="7.00583">
        <ele>699.9770508</ele>
        <time>2011-10-31T09:36:32Z</time>
      </trkpt>
      <trkpt lat="43.89147" lon="7.00642">
        <ele>696.1318359</ele>
        <time>2011-10-31T09:36:38Z</time>
      </trkpt>
      <trkpt lat="43.89133" lon="7.00667">
        <ele>693.7285156</ele>
        <time>2011-10-31T09:36:41Z</time>
      </trkpt>
      <trkpt lat="43.89125" lon="7.00683">
        <ele>691.8059082</ele>
        <time>2011-10-31T09:36:43Z</time>
      </trkpt>
      <trkpt lat="43.89121" lon="7.0073">
        <ele>687.4799805</ele>
        <time>2011-10-31T09:36:48Z</time>
      </trkpt>
      <trkpt lat="43.8912" lon="7.00739">
        <ele>686.0380859</ele>
        <time>2011-10-31T09:36:49Z</time>
      </trkpt>
      <trkpt lat="43.89115" lon="7.00769">
        <ele>684.1154785</ele>
        <time>2011-10-31T09:36:53Z</time>
      </trkpt>
      <trkpt lat="43.89135" lon="7.00866">
        <ele>688.9221191</ele>
        <time>2011-10-31T09:37:11Z</time>
      </trkpt>
      <trkpt lat="43.89151" lon="7.00934">
        <ele>694.2092285</ele>
        <time>2011-10-31T09:37:33Z</time>
      </trkpt>
      <trkpt lat="43.89153" lon="7.00936">
        <ele>694.2092285</ele>
        <time>2011-10-31T09:37:34Z</time>
      </trkpt>
      <trkpt lat="43.89184" lon="7.00972">
        <ele>697.5737305</ele>
        <time>2011-10-31T09:37:53Z</time>
      </trkpt>
      <trkpt lat="43.89204" lon="7.00984">
        <ele>700.4580078</ele>
        <time>2011-10-31T09:38:04Z</time>
      </trkpt>
      <trkpt lat="43.89242" lon="7.01003">
        <ele>702.861084</ele>
        <time>2011-10-31T09:38:25Z</time>
      </trkpt>
      <trkpt lat="43.89266" lon="7.00995">
        <ele>706.2255859</ele>
        <time>2011-10-31T09:38:39Z</time>
      </trkpt>
      <trkpt lat="43.89267" lon="7.00994">
        <ele>706.2255859</ele>
        <time>2011-10-31T09:38:40Z</time>
      </trkpt>
      <trkpt lat="43.8932" lon="7.00936">
        <ele>710.5515137</ele>
        <time>2011-10-31T09:39:16Z</time>
      </trkpt>
      <trkpt lat="43.89355" lon="7.00938">
        <ele>713.9160156</ele>
        <time>2011-10-31T09:39:34Z</time>
      </trkpt>
      <trkpt lat="43.8939" lon="7.00999">
        <ele>720.1647949</ele>
        <time>2011-10-31T09:40:13Z</time>
      </trkpt>
      <trkpt lat="43.89431" lon="7.01068">
        <ele>725.9326172</ele>
        <time>2011-10-31T09:40:56Z</time>
      </trkpt>
      <trkpt lat="43.8944" lon="7.01113">
        <ele>729.2971191</ele>
        <time>2011-10-31T09:41:15Z</time>
      </trkpt>
      <trkpt lat="43.89453" lon="7.01153">
        <ele>732.6621094</ele>
        <time>2011-10-31T09:41:34Z</time>
      </trkpt>
      <trkpt lat="43.89463" lon="7.01233">
        <ele>736.987793</ele>
        <time>2011-10-31T09:42:07Z</time>
      </trkpt>
      <trkpt lat="43.89443" lon="7.01288">
        <ele>740.8330078</ele>
        <time>2011-10-31T09:42:32Z</time>
      </trkpt>
      <trkpt lat="43.89406" lon="7.0134">
        <ele>745.6396484</ele>
        <time>2011-10-31T09:43:02Z</time>
      </trkpt>
      <trkpt lat="43.89401" lon="7.0139">
        <ele>749.0043945</ele>
        <time>2011-10-31T09:43:21Z</time>
      </trkpt>
      <trkpt lat="43.89428" lon="7.01456">
        <ele>754.291748</ele>
        <time>2011-10-31T09:43:59Z</time>
      </trkpt>
      <trkpt lat="43.89458" lon="7.01465">
        <ele>756.6948242</ele>
        <time>2011-10-31T09:44:17Z</time>
      </trkpt>
      <trkpt lat="43.89485" lon="7.01512">
        <ele>760.5400391</ele>
        <time>2011-10-31T09:44:41Z</time>
      </trkpt>
      <trkpt lat="43.89513" lon="7.01627">
        <ele>764.8662109</ele>
        <time>2011-10-31T09:45:23Z</time>
      </trkpt>
      <trkpt lat="43.89504" lon="7.01733">
        <ele>769.1921387</ele>
        <time>2011-10-31T09:45:58Z</time>
      </trkpt>
      <trkpt lat="43.89508" lon="7.0176">
        <ele>770.6340332</ele>
        <time>2011-10-31T09:46:07Z</time>
      </trkpt>
      <trkpt lat="43.89527" lon="7.01854">
        <ele>774.9599609</ele>
        <time>2011-10-31T09:46:40Z</time>
      </trkpt>
      <trkpt lat="43.89531" lon="7.01881">
        <ele>773.9985352</ele>
        <time>2011-10-31T09:46:46Z</time>
      </trkpt>
      <trkpt lat="43.89601" lon="7.01901">
        <ele>773.5180664</ele>
        <time>2011-10-31T09:47:08Z</time>
      </trkpt>
      <trkpt lat="43.89652" lon="7.01906">
        <ele>773.0373535</ele>
        <time>2011-10-31T09:47:27Z</time>
      </trkpt>
      <trkpt lat="43.89768" lon="7.01895">
        <ele>772.0759277</ele>
        <time>2011-10-31T09:47:59Z</time>
      </trkpt>
      <trkpt lat="43.89833" lon="7.01885">
        <ele>777.84375</ele>
        <time>2011-10-31T09:48:25Z</time>
      </trkpt>
      <trkpt lat="43.89864" lon="7.01872">
        <ele>782.6506348</ele>
        <time>2011-10-31T09:48:46Z</time>
      </trkpt>
      <trkpt lat="43.89907" lon="7.01859">
        <ele>788.8991699</ele>
        <time>2011-10-31T09:49:13Z</time>
      </trkpt>
      <trkpt lat="43.89928" lon="7.0185">
        <ele>791.782959</ele>
        <time>2011-10-31T09:49:27Z</time>
      </trkpt>
      <trkpt lat="43.89947" lon="7.01809">
        <ele>792.7443848</ele>
        <time>2011-10-31T09:49:48Z</time>
      </trkpt>
      <trkpt lat="43.89963" lon="7.01739">
        <ele>794.1862793</ele>
        <time>2011-10-31T09:50:15Z</time>
      </trkpt>
      <trkpt lat="43.89959" lon="7.0171">
        <ele>794.1862793</ele>
        <time>2011-10-31T09:50:21Z</time>
      </trkpt>
      <trkpt lat="43.89964" lon="7.01623">
        <ele>795.6281738</ele>
        <time>2011-10-31T09:50:43Z</time>
      </trkpt>
      <trkpt lat="43.89942" lon="7.01537">
        <ele>800.9155273</ele>
        <time>2011-10-31T09:51:13Z</time>
      </trkpt>
      <trkpt lat="43.8994" lon="7.01533">
        <ele>799.9543457</ele>
        <time>2011-10-31T09:51:21Z</time>
      </trkpt>
      <trkpt lat="43.89936" lon="7.0152">
        <ele>800.9155273</ele>
        <time>2011-10-31T09:51:47Z</time>
      </trkpt>
      <trkpt lat="43.89919" lon="7.01435">
        <ele>802.8381348</ele>
        <time>2011-10-31T09:52:09Z</time>
      </trkpt>
      <trkpt lat="43.89906" lon="7.0134">
        <ele>806.2026367</ele>
        <time>2011-10-31T09:52:39Z</time>
      </trkpt>
      <trkpt lat="43.89907" lon="7.01324">
        <ele>807.1640625</ele>
        <time>2011-10-31T09:52:51Z</time>
      </trkpt>
      <trkpt lat="43.89879" lon="7.01229">
        <ele>808.605957</ele>
        <time>2011-10-31T09:53:18Z</time>
      </trkpt>
      <trkpt lat="43.89865" lon="7.01152">
        <ele>811.4899902</ele>
        <time>2011-10-31T09:53:42Z</time>
      </trkpt>
      <trkpt lat="43.8986" lon="7.01117">
        <ele>814.8547363</ele>
        <time>2011-10-31T09:54:01Z</time>
      </trkpt>
      <trkpt lat="43.89858" lon="7.01104">
        <ele>814.8547363</ele>
        <time>2011-10-31T09:54:10Z</time>
      </trkpt>
      <trkpt lat="43.89837" lon="7.01034">
        <ele>817.2580566</ele>
        <time>2011-10-31T09:54:31Z</time>
      </trkpt>
      <trkpt lat="43.89826" lon="7.0101">
        <ele>821.5837402</ele>
        <time>2011-10-31T09:55:01Z</time>
      </trkpt>
      <trkpt lat="43.89826" lon="7.0101">
        <ele>821.5837402</ele>
        <time>2011-10-31T09:55:04Z</time>
      </trkpt>
      <trkpt lat="43.8982" lon="7.00969">
        <ele>823.5065918</ele>
        <time>2011-10-31T09:55:17Z</time>
      </trkpt>
      <trkpt lat="43.89811" lon="7.00947">
        <ele>824.9484863</ele>
        <time>2011-10-31T09:55:32Z</time>
      </trkpt>
      <trkpt lat="43.89808" lon="7.00891">
        <ele>827.3518066</ele>
        <time>2011-10-31T09:56:00Z</time>
      </trkpt>
      <trkpt lat="43.89808" lon="7.00891">
        <ele>827.3518066</ele>
        <time>2011-10-31T09:56:22Z</time>
      </trkpt>
      <trkpt lat="43.89808" lon="7.00889">
        <ele>828.3132324</ele>
        <time>2011-10-31T10:08:21Z</time>
      </trkpt>
      <trkpt lat="43.89808" lon="7.00889">
        <ele>828.3132324</ele>
        <time>2011-10-31T10:08:23Z</time>
      </trkpt>
      <trkpt lat="43.89809" lon="7.00861">
        <ele>824.4677734</ele>
        <time>2011-10-31T10:08:35Z</time>
      </trkpt>
      <trkpt lat="43.89798" lon="7.00823">
        <ele>820.1418457</ele>
        <time>2011-10-31T10:08:43Z</time>
      </trkpt>
      <trkpt lat="43.89799" lon="7.00813">
        <ele>818.6999512</ele>
        <time>2011-10-31T10:08:45Z</time>
      </trkpt>
      <trkpt lat="43.898" lon="7.00801">
        <ele>817.2580566</ele>
        <time>2011-10-31T10:08:47Z</time>
      </trkpt>
      <trkpt lat="43.898" lon="7.00769">
        <ele>813.4128418</ele>
        <time>2011-10-31T10:08:52Z</time>
      </trkpt>
      <trkpt lat="43.89796" lon="7.00726">
        <ele>807.1640625</ele>
        <time>2011-10-31T10:09:03Z</time>
      </trkpt>
      <trkpt lat="43.89796" lon="7.00722">
        <ele>807.1640625</ele>
        <time>2011-10-31T10:09:04Z</time>
      </trkpt>
      <trkpt lat="43.89796" lon="7.0069">
        <ele>803.3188477</ele>
        <time>2011-10-31T10:09:14Z</time>
      </trkpt>
      <trkpt lat="43.89796" lon="7.00658">
        <ele>798.9929199</ele>
        <time>2011-10-31T10:09:26Z</time>
      </trkpt>
      <trkpt lat="43.89796" lon="7.00632">
        <ele>795.6281738</ele>
        <time>2011-10-31T10:09:35Z</time>
      </trkpt>
      <trkpt lat="43.89796" lon="7.00628">
        <ele>795.6281738</ele>
        <time>2011-10-31T10:09:36Z</time>
      </trkpt>
      <trkpt lat="43.89796" lon="7.00575">
        <ele>790.8215332</ele>
        <time>2011-10-31T10:09:49Z</time>
      </trkpt>
      <trkpt lat="43.89796" lon="7.00506">
        <ele>786.9763184</ele>
        <time>2011-10-31T10:10:04Z</time>
      </trkpt>
      <trkpt lat="43.89798" lon="7.00499">
        <ele>786.9763184</ele>
        <time>2011-10-31T10:10:06Z</time>
      </trkpt>
      <trkpt lat="43.89814" lon="7.00459">
        <ele>781.689209</ele>
        <time>2011-10-31T10:10:15Z</time>
      </trkpt>
      <trkpt lat="43.89823" lon="7.00434">
        <ele>778.3244629</ele>
        <time>2011-10-31T10:10:21Z</time>
      </trkpt>
      <trkpt lat="43.89831" lon="7.00408">
        <ele>775.4404297</ele>
        <time>2011-10-31T10:10:32Z</time>
      </trkpt>
      <trkpt lat="43.89859" lon="7.00382">
        <ele>772.0759277</ele>
        <time>2011-10-31T10:10:46Z</time>
      </trkpt>
      <trkpt lat="43.89879" lon="7.00375">
        <ele>767.75</ele>
        <time>2011-10-31T10:10:53Z</time>
      </trkpt>
      <trkpt lat="43.89885" lon="7.00372">
        <ele>767.75</ele>
        <time>2011-10-31T10:10:54Z</time>
      </trkpt>
      <trkpt lat="43.899" lon="7.00358">
        <ele>766.7888184</ele>
        <time>2011-10-31T10:11:00Z</time>
      </trkpt>
      <trkpt lat="43.89922" lon="7.00339">
        <ele>762.4626465</ele>
        <time>2011-10-31T10:11:08Z</time>
      </trkpt>
      <trkpt lat="43.89924" lon="7.00336">
        <ele>762.4626465</ele>
        <time>2011-10-31T10:11:09Z</time>
      </trkpt>
      <trkpt lat="43.89939" lon="7.00255">
        <ele>761.9821777</ele>
        <time>2011-10-31T10:11:27Z</time>
      </trkpt>
      <trkpt lat="43.89934" lon="7.00107">
        <ele>759.5788574</ele>
        <time>2011-10-31T10:11:55Z</time>
      </trkpt>
      <trkpt lat="43.89926" lon="7.00017">
        <ele>755.7336426</ele>
        <time>2011-10-31T10:12:12Z</time>
      </trkpt>
      <trkpt lat="43.89928" lon="7.00004">
        <ele>754.291748</ele>
        <time>2011-10-31T10:12:22Z</time>
      </trkpt>
      <trkpt lat="43.89951" lon="6.99933">
        <ele>748.5236816</ele>
        <time>2011-10-31T10:12:41Z</time>
      </trkpt>
      <trkpt lat="43.89953" lon="6.99926">
        <ele>748.5236816</ele>
        <time>2011-10-31T10:12:42Z</time>
      </trkpt>
      <trkpt lat="43.89973" lon="6.99851">
        <ele>745.6396484</ele>
        <time>2011-10-31T10:12:59Z</time>
      </trkpt>
      <trkpt lat="43.89987" lon="6.99791">
        <ele>742.2751465</ele>
        <time>2011-10-31T10:13:12Z</time>
      </trkpt>
      <trkpt lat="43.89987" lon="6.99775">
        <ele>741.7944336</ele>
        <time>2011-10-31T10:13:15Z</time>
      </trkpt>
      <trkpt lat="43.89979" lon="6.99759">
        <ele>739.3911133</ele>
        <time>2011-10-31T10:13:29Z</time>
      </trkpt>
      <trkpt lat="43.89977" lon="6.99756">
        <ele>739.8718262</ele>
        <time>2011-10-31T10:13:37Z</time>
      </trkpt>
      <trkpt lat="43.89977" lon="6.99738">
        <ele>742.2751465</ele>
        <time>2011-10-31T10:14:01Z</time>
      </trkpt>
      <trkpt lat="43.9" lon="6.99718">
        <ele>740.8330078</ele>
        <time>2011-10-31T10:15:12Z</time>
      </trkpt>
      <trkpt lat="43.90013" lon="6.99707">
        <ele>737.4685059</ele>
        <time>2011-10-31T10:15:16Z</time>
      </trkpt>
      <trkpt lat="43.90023" lon="6.9968">
        <ele>732.6621094</ele>
        <time>2011-10-31T10:15:23Z</time>
      </trkpt>
      <trkpt lat="43.90025" lon="6.99664">
        <ele>730.7392578</ele>
        <time>2011-10-31T10:15:27Z</time>
      </trkpt>
      <trkpt lat="43.90032" lon="6.99661">
        <ele>730.7392578</ele>
        <time>2011-10-31T10:15:32Z</time>
      </trkpt>
      <trkpt lat="43.9006" lon="6.99626">
        <ele>727.8552246</ele>
        <time>2011-10-31T10:15:44Z</time>
      </trkpt>
      <trkpt lat="43.90074" lon="6.99576">
        <ele>725.9326172</ele>
        <time>2011-10-31T10:15:56Z</time>
      </trkpt>
      <trkpt lat="43.90086" lon="6.99527">
        <ele>727.3747559</ele>
        <time>2011-10-31T10:16:06Z</time>
      </trkpt>
      <trkpt lat="43.90078" lon="6.99495">
        <ele>731.2199707</ele>
        <time>2011-10-31T10:16:23Z</time>
      </trkpt>
      <trkpt lat="43.9008" lon="6.99481">
        <ele>730.7392578</ele>
        <time>2011-10-31T10:16:34Z</time>
      </trkpt>
      <trkpt lat="43.90092" lon="6.99462">
        <ele>724.4907227</ele>
        <time>2011-10-31T10:16:44Z</time>
      </trkpt>
      <trkpt lat="43.90093" lon="6.99432">
        <ele>721.1262207</ele>
        <time>2011-10-31T10:16:50Z</time>
      </trkpt>
      <trkpt lat="43.90101" lon="6.99353">
        <ele>716.3195801</ele>
        <time>2011-10-31T10:17:06Z</time>
      </trkpt>
      <trkpt lat="43.90103" lon="6.99346">
        <ele>716.3195801</ele>
        <time>2011-10-31T10:17:07Z</time>
      </trkpt>
      <trkpt lat="43.90111" lon="6.99291">
        <ele>713.4355469</ele>
        <time>2011-10-31T10:17:29Z</time>
      </trkpt>
      <trkpt lat="43.90137" lon="6.99268">
        <ele>708.6289063</ele>
        <time>2011-10-31T10:17:44Z</time>
      </trkpt>
      <trkpt lat="43.90139" lon="6.99266">
        <ele>708.6289063</ele>
        <time>2011-10-31T10:17:45Z</time>
      </trkpt>
      <trkpt lat="43.90161" lon="6.99254">
        <ele>703.3417969</ele>
        <time>2011-10-31T10:17:53Z</time>
      </trkpt>
      <trkpt lat="43.90174" lon="6.99243">
        <ele>699.9770508</ele>
        <time>2011-10-31T10:17:57Z</time>
      </trkpt>
      <trkpt lat="43.90209" lon="6.99178">
        <ele>697.5737305</ele>
        <time>2011-10-31T10:18:20Z</time>
      </trkpt>
      <trkpt lat="43.90212" lon="6.99124">
        <ele>701.4191895</ele>
        <time>2011-10-31T10:18:41Z</time>
      </trkpt>
      <trkpt lat="43.90218" lon="6.99109">
        <ele>702.3803711</ele>
        <time>2011-10-31T10:19:09Z</time>
      </trkpt>
      <trkpt lat="43.90207" lon="6.99132">
        <ele>700.9384766</ele>
        <time>2011-10-31T10:19:37Z</time>
      </trkpt>
      <trkpt lat="43.90207" lon="6.99131">
        <ele>700.4580078</ele>
        <time>2011-10-31T10:19:42Z</time>
      </trkpt>
      <trkpt lat="43.90216" lon="6.99121">
        <ele>701.8999023</ele>
        <time>2011-10-31T10:20:07Z</time>
      </trkpt>
      <trkpt lat="43.90239" lon="6.99089">
        <ele>703.3417969</ele>
        <time>2011-10-31T10:20:23Z</time>
      </trkpt>
      <trkpt lat="43.90313" lon="6.99159">
        <ele>707.1870117</ele>
        <time>2011-10-31T10:20:55Z</time>
      </trkpt>
      <trkpt lat="43.90314" lon="6.99161">
        <ele>707.1870117</ele>
        <time>2011-10-31T10:20:56Z</time>
      </trkpt>
      <trkpt lat="43.90348" lon="6.99166">
        <ele>711.5129395</ele>
        <time>2011-10-31T10:21:14Z</time>
      </trkpt>
      <trkpt lat="43.90372" lon="6.99145">
        <ele>715.8388672</ele>
        <time>2011-10-31T10:21:38Z</time>
      </trkpt>
      <trkpt lat="43.90322" lon="6.99101">
        <ele>720.6455078</ele>
        <time>2011-10-31T10:22:09Z</time>
      </trkpt>
      <trkpt lat="43.90297" lon="6.99075">
        <ele>724.0100098</ele>
        <time>2011-10-31T10:22:28Z</time>
      </trkpt>
      <trkpt lat="43.90288" lon="6.99045">
        <ele>726.4133301</ele>
        <time>2011-10-31T10:22:43Z</time>
      </trkpt>
      <trkpt lat="43.90305" lon="6.98997">
        <ele>729.777832</ele>
        <time>2011-10-31T10:23:07Z</time>
      </trkpt>
      <trkpt lat="43.90312" lon="6.98978">
        <ele>731.7004395</ele>
        <time>2011-10-31T10:24:33Z</time>
      </trkpt>
      <trkpt lat="43.90324" lon="6.98915">
        <ele>736.0266113</ele>
        <time>2011-10-31T10:25:00Z</time>
      </trkpt>
      <trkpt lat="43.90329" lon="6.98871">
        <ele>739.8718262</ele>
        <time>2011-10-31T10:25:20Z</time>
      </trkpt>
      <trkpt lat="43.90333" lon="6.98836">
        <ele>742.7558594</ele>
        <time>2011-10-31T10:25:36Z</time>
      </trkpt>
      <trkpt lat="43.90338" lon="6.98801">
        <ele>745.6396484</ele>
        <time>2011-10-31T10:25:51Z</time>
      </trkpt>
      <trkpt lat="43.90345" lon="6.98738">
        <ele>749.9658203</ele>
        <time>2011-10-31T10:26:20Z</time>
      </trkpt>
      <trkpt lat="43.9036" lon="6.98679">
        <ele>755.2529297</ele>
        <time>2011-10-31T10:26:51Z</time>
      </trkpt>
      <trkpt lat="43.90396" lon="6.98638">
        <ele>760.0593262</ele>
        <time>2011-10-31T10:27:23Z</time>
      </trkpt>
      <trkpt lat="43.904" lon="6.98615">
        <ele>762.9433594</ele>
        <time>2011-10-31T10:27:36Z</time>
      </trkpt>
      <trkpt lat="43.90409" lon="6.98544">
        <ele>768.7114258</ele>
        <time>2011-10-31T10:28:12Z</time>
      </trkpt>
      <trkpt lat="43.90453" lon="6.98504">
        <ele>774.9599609</ele>
        <time>2011-10-31T10:28:54Z</time>
      </trkpt>
      <trkpt lat="43.90473" lon="6.98483">
        <ele>777.84375</ele>
        <time>2011-10-31T10:29:11Z</time>
      </trkpt>
      <trkpt lat="43.90495" lon="6.98461">
        <ele>780.7280273</ele>
        <time>2011-10-31T10:29:31Z</time>
      </trkpt>
      <trkpt lat="43.90489" lon="6.98425">
        <ele>784.5732422</ele>
        <time>2011-10-31T10:29:52Z</time>
      </trkpt>
      <trkpt lat="43.90522" lon="6.98381">
        <ele>788.8991699</ele>
        <time>2011-10-31T10:30:23Z</time>
      </trkpt>
      <trkpt lat="43.90533" lon="6.98377">
        <ele>789.8603516</ele>
        <time>2011-10-31T10:30:31Z</time>
      </trkpt>
      <trkpt lat="43.90512" lon="6.9841">
        <ele>793.7055664</ele>
        <time>2011-10-31T10:30:58Z</time>
      </trkpt>
      <trkpt lat="43.90523" lon="6.98442">
        <ele>797.0703125</ele>
        <time>2011-10-31T10:31:17Z</time>
      </trkpt>
      <trkpt lat="43.90527" lon="6.98445">
        <ele>796.5898438</ele>
        <time>2011-10-31T10:31:20Z</time>
      </trkpt>
      <trkpt lat="43.90547" lon="6.98468">
        <ele>799.9543457</ele>
        <time>2011-10-31T10:31:36Z</time>
      </trkpt>
      <trkpt lat="43.90537" lon="6.985">
        <ele>801.3962402</ele>
        <time>2011-10-31T10:31:54Z</time>
      </trkpt>
      <trkpt lat="43.90536" lon="6.98504">
        <ele>802.3574219</ele>
        <time>2011-10-31T10:31:57Z</time>
      </trkpt>
      <trkpt lat="43.90528" lon="6.98528">
        <ele>804.7607422</ele>
        <time>2011-10-31T10:32:08Z</time>
      </trkpt>
      <trkpt lat="43.90528" lon="6.98538">
        <ele>804.2802734</ele>
        <time>2011-10-31T10:32:12Z</time>
      </trkpt>
      <trkpt lat="43.90509" lon="6.98572">
        <ele>807.6447754</ele>
        <time>2011-10-31T10:32:33Z</time>
      </trkpt>
      <trkpt lat="43.90524" lon="6.98619">
        <ele>812.451416</ele>
        <time>2011-10-31T10:33:02Z</time>
      </trkpt>
      <trkpt lat="43.90552" lon="6.98622">
        <ele>816.7773438</ele>
        <time>2011-10-31T10:33:28Z</time>
      </trkpt>
      <trkpt lat="43.9056" lon="6.9858">
        <ele>820.1418457</ele>
        <time>2011-10-31T10:33:49Z</time>
      </trkpt>
      <trkpt lat="43.90562" lon="6.98571">
        <ele>820.1418457</ele>
        <time>2011-10-31T10:33:53Z</time>
      </trkpt>
      <trkpt lat="43.9057" lon="6.98555">
        <ele>820.6225586</ele>
        <time>2011-10-31T10:34:02Z</time>
      </trkpt>
      <trkpt lat="43.90614" lon="6.98532">
        <ele>823.9870605</ele>
        <time>2011-10-31T10:34:31Z</time>
      </trkpt>
      <trkpt lat="43.90642" lon="6.98553">
        <ele>827.3518066</ele>
        <time>2011-10-31T10:34:50Z</time>
      </trkpt>
      <trkpt lat="43.90679" lon="6.98569">
        <ele>832.6391602</ele>
        <time>2011-10-31T10:35:20Z</time>
      </trkpt>
      <trkpt lat="43.90704" lon="6.98531">
        <ele>836.9648438</ele>
        <time>2011-10-31T10:35:49Z</time>
      </trkpt>
      <trkpt lat="43.9072" lon="6.98528">
        <ele>838.8876953</ele>
        <time>2011-10-31T10:36:03Z</time>
      </trkpt>
      <trkpt lat="43.90726" lon="6.98472">
        <ele>843.6940918</ele>
        <time>2011-10-31T10:36:32Z</time>
      </trkpt>
      <trkpt lat="43.90727" lon="6.98467">
        <ele>843.6940918</ele>
        <time>2011-10-31T10:36:35Z</time>
      </trkpt>
      <trkpt lat="43.90759" lon="6.98429">
        <ele>848.5007324</ele>
        <time>2011-10-31T10:37:06Z</time>
      </trkpt>
      <trkpt lat="43.90812" lon="6.98427">
        <ele>854.2687988</ele>
        <time>2011-10-31T10:37:42Z</time>
      </trkpt>
      <trkpt lat="43.90828" lon="6.9844">
        <ele>857.6333008</ele>
        <time>2011-10-31T10:37:55Z</time>
      </trkpt>
      <trkpt lat="43.90871" lon="6.9841">
        <ele>860.517334</ele>
        <time>2011-10-31T10:38:30Z</time>
      </trkpt>
      <trkpt lat="43.90897" lon="6.98337">
        <ele>857.1525879</ele>
        <time>2011-10-31T10:38:54Z</time>
      </trkpt>
      <trkpt lat="43.90985" lon="6.98239">
        <ele>856.1911621</ele>
        <time>2011-10-31T10:39:20Z</time>
      </trkpt>
      <trkpt lat="43.91004" lon="6.98226">
        <ele>859.5559082</ele>
        <time>2011-10-31T10:39:29Z</time>
      </trkpt>
      <trkpt lat="43.91005" lon="6.98223">
        <ele>859.5559082</ele>
        <time>2011-10-31T10:39:30Z</time>
      </trkpt>
      <trkpt lat="43.91052" lon="6.98128">
        <ele>857.6333008</ele>
        <time>2011-10-31T10:39:57Z</time>
      </trkpt>
      <trkpt lat="43.91059" lon="6.98123">
        <ele>854.7492676</ele>
        <time>2011-10-31T10:40:04Z</time>
      </trkpt>
      <trkpt lat="43.91058" lon="6.98098">
        <ele>851.8654785</ele>
        <time>2011-10-31T10:40:09Z</time>
      </trkpt>
      <trkpt lat="43.91057" lon="6.98086">
        <ele>850.423584</ele>
        <time>2011-10-31T10:40:11Z</time>
      </trkpt>
      <trkpt lat="43.91057" lon="6.98068">
        <ele>848.0202637</ele>
        <time>2011-10-31T10:40:14Z</time>
      </trkpt>
      <trkpt lat="43.91057" lon="6.98038">
        <ele>844.1750488</ele>
        <time>2011-10-31T10:40:37Z</time>
      </trkpt>
      <trkpt lat="43.91054" lon="6.97992">
        <ele>840.3295898</ele>
        <time>2011-10-31T10:41:22Z</time>
      </trkpt>
      <trkpt lat="43.9105" lon="6.97949">
        <ele>834.0810547</ele>
        <time>2011-10-31T10:41:31Z</time>
      </trkpt>
      <trkpt lat="43.91049" lon="6.97946">
        <ele>834.0810547</ele>
        <time>2011-10-31T10:41:32Z</time>
      </trkpt>
      <trkpt lat="43.91044" lon="6.97902">
        <ele>831.6777344</ele>
        <time>2011-10-31T10:42:00Z</time>
      </trkpt>
      <trkpt lat="43.91042" lon="6.97849">
        <ele>828.3132324</ele>
        <time>2011-10-31T10:42:09Z</time>
      </trkpt>
      <trkpt lat="43.9104" lon="6.97817">
        <ele>823.0258789</ele>
        <time>2011-10-31T10:42:15Z</time>
      </trkpt>
      <trkpt lat="43.9104" lon="6.97813">
        <ele>820.1418457</ele>
        <time>2011-10-31T10:42:33Z</time>
      </trkpt>
      <trkpt lat="43.9104" lon="6.97813">
        <ele>821.5837402</ele>
        <time>2011-10-31T10:43:11Z</time>
      </trkpt>
      <trkpt lat="43.91029" lon="6.97688">
        <ele>823.0258789</ele>
        <time>2011-10-31T10:43:48Z</time>
      </trkpt>
      <trkpt lat="43.91001" lon="6.97567">
        <ele>824.9484863</ele>
        <time>2011-10-31T10:44:13Z</time>
      </trkpt>
      <trkpt lat="43.90998" lon="6.97563">
        <ele>824.9484863</ele>
        <time>2011-10-31T10:44:14Z</time>
      </trkpt>
      <trkpt lat="43.90964" lon="6.97503">
        <ele>823.9870605</ele>
        <time>2011-10-31T10:44:28Z</time>
      </trkpt>
      <trkpt lat="43.90914" lon="6.97447">
        <ele>823.0258789</ele>
        <time>2011-10-31T10:44:46Z</time>
      </trkpt>
      <trkpt lat="43.90907" lon="6.97427">
        <ele>820.6225586</ele>
        <time>2011-10-31T10:45:12Z</time>
      </trkpt>
      <trkpt lat="43.90907" lon="6.97391">
        <ele>817.2580566</ele>
        <time>2011-10-31T10:45:21Z</time>
      </trkpt>
      <trkpt lat="43.90905" lon="6.97376">
        <ele>816.7773438</ele>
        <time>2011-10-31T10:45:44Z</time>
      </trkpt>
      <trkpt lat="43.90906" lon="6.97379">
        <ele>816.7773438</ele>
        <time>2011-10-31T10:46:00Z</time>
      </trkpt>
      <trkpt lat="43.90907" lon="6.97412">
        <ele>820.1418457</ele>
        <time>2011-10-31T10:46:21Z</time>
      </trkpt>
      <trkpt lat="43.90911" lon="6.97439">
        <ele>822.545166</ele>
        <time>2011-10-31T10:46:56Z</time>
      </trkpt>
      <trkpt lat="43.90901" lon="6.97434">
        <ele>819.661377</ele>
        <time>2011-10-31T10:47:02Z</time>
      </trkpt>
      <trkpt lat="43.90882" lon="6.9742">
        <ele>814.3740234</ele>
        <time>2011-10-31T10:47:09Z</time>
      </trkpt>
      <trkpt lat="43.90879" lon="6.97419">
        <ele>814.3740234</ele>
        <time>2011-10-31T10:47:10Z</time>
      </trkpt>
      <trkpt lat="43.90847" lon="6.97383">
        <ele>811.4899902</ele>
        <time>2011-10-31T10:47:26Z</time>
      </trkpt>
      <trkpt lat="43.90811" lon="6.97374">
        <ele>810.5285645</ele>
        <time>2011-10-31T10:47:40Z</time>
      </trkpt>
      <trkpt lat="43.90768" lon="6.97396">
        <ele>813.4128418</ele>
        <time>2011-10-31T10:47:58Z</time>
      </trkpt>
      <trkpt lat="43.90749" lon="6.97377">
        <ele>811.4899902</ele>
        <time>2011-10-31T10:48:05Z</time>
      </trkpt>
      <trkpt lat="43.90719" lon="6.97346">
        <ele>807.1640625</ele>
        <time>2011-10-31T10:48:14Z</time>
      </trkpt>
      <trkpt lat="43.90704" lon="6.97322">
        <ele>803.3188477</ele>
        <time>2011-10-31T10:48:18Z</time>
      </trkpt>
      <trkpt lat="43.90692" lon="6.97303">
        <ele>799.9543457</ele>
        <time>2011-10-31T10:48:22Z</time>
      </trkpt>
      <trkpt lat="43.90674" lon="6.97272">
        <ele>797.0703125</ele>
        <time>2011-10-31T10:48:29Z</time>
      </trkpt>
      <trkpt lat="43.90669" lon="6.97268">
        <ele>797.0703125</ele>
        <time>2011-10-31T10:48:30Z</time>
      </trkpt>
      <trkpt lat="43.90649" lon="6.97253">
        <ele>793.7055664</ele>
        <time>2011-10-31T10:48:34Z</time>
      </trkpt>
      <trkpt lat="43.90639" lon="6.9725">
        <ele>790.3410645</ele>
        <time>2011-10-31T10:48:36Z</time>
      </trkpt>
      <trkpt lat="43.90616" lon="6.97246">
        <ele>786.9763184</ele>
        <time>2011-10-31T10:48:40Z</time>
      </trkpt>
      <trkpt lat="43.90612" lon="6.97243">
        <ele>786.9763184</ele>
        <time>2011-10-31T10:48:41Z</time>
      </trkpt>
      <trkpt lat="43.90584" lon="6.97223">
        <ele>783.1311035</ele>
        <time>2011-10-31T10:48:51Z</time>
      </trkpt>
      <trkpt lat="43.9058" lon="6.97222">
        <ele>781.689209</ele>
        <time>2011-10-31T10:48:53Z</time>
      </trkpt>
      <trkpt lat="43.90564" lon="6.9721">
        <ele>777.84375</ele>
        <time>2011-10-31T10:48:57Z</time>
      </trkpt>
      <trkpt lat="43.90548" lon="6.97201">
        <ele>774.479248</ele>
        <time>2011-10-31T10:49:02Z</time>
      </trkpt>
      <trkpt lat="43.90537" lon="6.97198">
        <ele>772.0759277</ele>
        <time>2011-10-31T10:49:05Z</time>
      </trkpt>
      <trkpt lat="43.9053" lon="6.97188">
        <ele>771.1147461</ele>
        <time>2011-10-31T10:49:09Z</time>
      </trkpt>
      <trkpt lat="43.90521" lon="6.97175">
        <ele>767.2695313</ele>
        <time>2011-10-31T10:49:13Z</time>
      </trkpt>
      <trkpt lat="43.90518" lon="6.97173">
        <ele>767.2695313</ele>
        <time>2011-10-31T10:49:14Z</time>
      </trkpt>
      <trkpt lat="43.90507" lon="6.97171">
        <ele>763.904541</ele>
        <time>2011-10-31T10:49:40Z</time>
      </trkpt>
      <trkpt lat="43.90493" lon="6.97168">
        <ele>760.0593262</ele>
        <time>2011-10-31T10:49:51Z</time>
      </trkpt>
      <trkpt lat="43.90489" lon="6.97167">
        <ele>756.6948242</ele>
        <time>2011-10-31T10:50:02Z</time>
      </trkpt>
      <trkpt lat="43.90489" lon="6.97167">
        <ele>754.291748</ele>
        <time>2011-10-31T10:50:19Z</time>
      </trkpt>
      <trkpt lat="43.9047" lon="6.97148">
        <ele>750.927002</ele>
        <time>2011-10-31T10:50:26Z</time>
      </trkpt>
      <trkpt lat="43.90465" lon="6.97139">
        <ele>747.081543</ele>
        <time>2011-10-31T10:50:33Z</time>
      </trkpt>
      <trkpt lat="43.90464" lon="6.97134">
        <ele>741.7944336</ele>
        <time>2011-10-31T10:50:54Z</time>
      </trkpt>
      <trkpt lat="43.90446" lon="6.9711">
        <ele>737.4685059</ele>
        <time>2011-10-31T10:51:04Z</time>
      </trkpt>
      <trkpt lat="43.90445" lon="6.97107">
        <ele>735.0654297</ele>
        <time>2011-10-31T10:51:05Z</time>
      </trkpt>
      <trkpt lat="43.90441" lon="6.97088">
        <ele>731.7004395</ele>
        <time>2011-10-31T10:51:11Z</time>
      </trkpt>
      <trkpt lat="43.90439" lon="6.97081">
        <ele>729.777832</ele>
        <time>2011-10-31T10:51:13Z</time>
      </trkpt>
      <trkpt lat="43.9043" lon="6.97073">
        <ele>725.4519043</ele>
        <time>2011-10-31T10:51:20Z</time>
      </trkpt>
      <trkpt lat="43.90432" lon="6.9705">
        <ele>721.6066895</ele>
        <time>2011-10-31T10:51:27Z</time>
      </trkpt>
      <trkpt lat="43.90429" lon="6.97037">
        <ele>717.7614746</ele>
        <time>2011-10-31T10:51:31Z</time>
      </trkpt>
      <trkpt lat="43.90427" lon="6.97036">
        <ele>717.7614746</ele>
        <time>2011-10-31T10:51:32Z</time>
      </trkpt>
      <trkpt lat="43.90425" lon="6.97026">
        <ele>714.8774414</ele>
        <time>2011-10-31T10:51:37Z</time>
      </trkpt>
      <trkpt lat="43.90424" lon="6.97023">
        <ele>714.8774414</ele>
        <time>2011-10-31T10:51:38Z</time>
      </trkpt>
      <trkpt lat="43.90416" lon="6.97014">
        <ele>712.954834</ele>
        <time>2011-10-31T10:51:40Z</time>
      </trkpt>
      <trkpt lat="43.90404" lon="6.96997">
        <ele>709.1096191</ele>
        <time>2011-10-31T10:51:45Z</time>
      </trkpt>
      <trkpt lat="43.90401" lon="6.96995">
        <ele>709.1096191</ele>
        <time>2011-10-31T10:51:46Z</time>
      </trkpt>
      <trkpt lat="43.90388" lon="6.96981">
        <ele>705.2644043</ele>
        <time>2011-10-31T10:51:52Z</time>
      </trkpt>
      <trkpt lat="43.90385" lon="6.96978">
        <ele>705.2644043</ele>
        <time>2011-10-31T10:51:53Z</time>
      </trkpt>
      <trkpt lat="43.90384" lon="6.96958">
        <ele>701.4191895</ele>
        <time>2011-10-31T10:51:59Z</time>
      </trkpt>
      <trkpt lat="43.90388" lon="6.96954">
        <ele>700.4580078</ele>
        <time>2011-10-31T10:52:49Z</time>
      </trkpt>
      <trkpt lat="43.90402" lon="6.96936">
        <ele>697.0930176</ele>
        <time>2011-10-31T10:53:02Z</time>
      </trkpt>
      <trkpt lat="43.90401" lon="6.96919">
        <ele>696.1318359</ele>
        <time>2011-10-31T10:53:08Z</time>
      </trkpt>
      <trkpt lat="43.90401" lon="6.96873">
        <ele>691.3251953</ele>
        <time>2011-10-31T10:53:17Z</time>
      </trkpt>
      <trkpt lat="43.90401" lon="6.9687">
        <ele>691.3251953</ele>
        <time>2011-10-31T10:53:18Z</time>
      </trkpt>
      <trkpt lat="43.90393" lon="6.96867">
        <ele>687.4799805</ele>
        <time>2011-10-31T10:53:42Z</time>
      </trkpt>
      <trkpt lat="43.9039" lon="6.96863">
        <ele>685.557373</ele>
        <time>2011-10-31T10:53:47Z</time>
      </trkpt>
      <trkpt lat="43.90391" lon="6.96859">
        <ele>685.557373</ele>
        <time>2011-10-31T10:54:04Z</time>
      </trkpt>
      <trkpt lat="43.90425" lon="6.9684">
        <ele>682.6733398</ele>
        <time>2011-10-31T10:54:31Z</time>
      </trkpt>
      <trkpt lat="43.90435" lon="6.96832">
        <ele>681.2314453</ele>
        <time>2011-10-31T10:54:34Z</time>
      </trkpt>
      <trkpt lat="43.90458" lon="6.96797">
        <ele>679.7893066</ele>
        <time>2011-10-31T10:54:40Z</time>
      </trkpt>
      <trkpt lat="43.90466" lon="6.96784">
        <ele>678.3474121</ele>
        <time>2011-10-31T10:54:42Z</time>
      </trkpt>
      <trkpt lat="43.90486" lon="6.96782">
        <ele>675.4633789</ele>
        <time>2011-10-31T10:54:55Z</time>
      </trkpt>
      <trkpt lat="43.90499" lon="6.96728">
        <ele>674.5021973</ele>
        <time>2011-10-31T10:55:16Z</time>
      </trkpt>
      <trkpt lat="43.90484" lon="6.96711">
        <ele>675.9440918</ele>
        <time>2011-10-31T10:55:41Z</time>
      </trkpt>
      <trkpt lat="43.90405" lon="6.96754">
        <ele>679.3085938</ele>
        <time>2011-10-31T10:56:13Z</time>
      </trkpt>
      <trkpt lat="43.90389" lon="6.96743">
        <ele>678.3474121</ele>
        <time>2011-10-31T10:56:17Z</time>
      </trkpt>
      <trkpt lat="43.90365" lon="6.96721">
        <ele>677.3862305</ele>
        <time>2011-10-31T10:56:25Z</time>
      </trkpt>
      <trkpt lat="43.90312" lon="6.96744">
        <ele>675.4633789</ele>
        <time>2011-10-31T10:56:47Z</time>
      </trkpt>
      <trkpt lat="43.90287" lon="6.96691">
        <ele>681.2314453</ele>
        <time>2011-10-31T10:57:12Z</time>
      </trkpt>
      <trkpt lat="43.90248" lon="6.96635">
        <ele>687.4799805</ele>
        <time>2011-10-31T10:57:48Z</time>
      </trkpt>
      <trkpt lat="43.90263" lon="6.9662">
        <ele>688.9221191</ele>
        <time>2011-10-31T10:57:58Z</time>
      </trkpt>
      <trkpt lat="43.90297" lon="6.96588">
        <ele>693.2478027</ele>
        <time>2011-10-31T10:58:28Z</time>
      </trkpt>
      <trkpt lat="43.90309" lon="6.96583">
        <ele>694.2092285</ele>
        <time>2011-10-31T10:58:36Z</time>
      </trkpt>
      <trkpt lat="43.90332" lon="6.96604">
        <ele>696.6125488</ele>
        <time>2011-10-31T10:58:54Z</time>
      </trkpt>
      <trkpt lat="43.90312" lon="6.96552">
        <ele>698.5349121</ele>
        <time>2011-10-31T10:59:18Z</time>
      </trkpt>
      <trkpt lat="43.90292" lon="6.96517">
        <ele>699.4963379</ele>
        <time>2011-10-31T10:59:33Z</time>
      </trkpt>
      <trkpt lat="43.90304" lon="6.96374">
        <ele>699.4963379</ele>
        <time>2011-10-31T11:00:07Z</time>
      </trkpt>
      <trkpt lat="43.90288" lon="6.96274">
        <ele>704.7836914</ele>
        <time>2011-10-31T11:00:38Z</time>
      </trkpt>
      <trkpt lat="43.90285" lon="6.96227">
        <ele>708.1484375</ele>
        <time>2011-10-31T11:00:59Z</time>
      </trkpt>
      <trkpt lat="43.90291" lon="6.96176">
        <ele>711.5129395</ele>
        <time>2011-10-31T11:01:21Z</time>
      </trkpt>
      <trkpt lat="43.90283" lon="6.96121">
        <ele>715.3581543</ele>
        <time>2011-10-31T11:01:47Z</time>
      </trkpt>
      <trkpt lat="43.90306" lon="6.96013">
        <ele>717.2810059</ele>
        <time>2011-10-31T11:02:25Z</time>
      </trkpt>
      <trkpt lat="43.90329" lon="6.95925">
        <ele>718.7229004</ele>
        <time>2011-10-31T11:02:50Z</time>
      </trkpt>
      <trkpt lat="43.90356" lon="6.95884">
        <ele>722.0874023</ele>
        <time>2011-10-31T11:03:07Z</time>
      </trkpt>
      <trkpt lat="43.90348" lon="6.95801">
        <ele>727.3747559</ele>
        <time>2011-10-31T11:03:42Z</time>
      </trkpt>
      <trkpt lat="43.90345" lon="6.95696">
        <ele>733.623291</ele>
        <time>2011-10-31T11:04:26Z</time>
      </trkpt>
      <trkpt lat="43.90362" lon="6.9565">
        <ele>736.0266113</ele>
        <time>2011-10-31T11:04:47Z</time>
      </trkpt>
      <trkpt lat="43.90384" lon="6.95617">
        <ele>738.9106445</ele>
        <time>2011-10-31T11:05:06Z</time>
      </trkpt>
      <trkpt lat="43.90386" lon="6.95606">
        <ele>739.8718262</ele>
        <time>2011-10-31T11:05:11Z</time>
      </trkpt>
      <trkpt lat="43.90422" lon="6.95554">
        <ele>742.7558594</ele>
        <time>2011-10-31T11:05:41Z</time>
      </trkpt>
      <trkpt lat="43.90417" lon="6.95505">
        <ele>744.6782227</ele>
        <time>2011-10-31T11:05:58Z</time>
      </trkpt>
      <trkpt lat="43.90412" lon="6.95498">
        <ele>744.6782227</ele>
        <time>2011-10-31T11:06:02Z</time>
      </trkpt>
      <trkpt lat="43.90375" lon="6.95475">
        <ele>749.0043945</ele>
        <time>2011-10-31T11:06:26Z</time>
      </trkpt>
      <trkpt lat="43.90373" lon="6.95471">
        <ele>749.0043945</ele>
        <time>2011-10-31T11:06:27Z</time>
      </trkpt>
      <trkpt lat="43.90378" lon="6.95421">
        <ele>751.8884277</ele>
        <time>2011-10-31T11:06:48Z</time>
      </trkpt>
      <trkpt lat="43.90378" lon="6.95421">
        <ele>752.3688965</ele>
        <time>2011-10-31T11:07:15Z</time>
      </trkpt>
      <trkpt lat="43.90378" lon="6.95421">
        <ele>751.8884277</ele>
        <time>2011-10-31T11:07:54Z</time>
      </trkpt>
      <trkpt lat="43.90381" lon="6.95411">
        <ele>747.5622559</ele>
        <time>2011-10-31T11:08:04Z</time>
      </trkpt>
      <trkpt lat="43.90381" lon="6.95411">
        <ele>743.2363281</ele>
        <time>2011-10-31T11:08:31Z</time>
      </trkpt>
      <trkpt lat="43.90347" lon="6.95394">
        <ele>737.4685059</ele>
        <time>2011-10-31T11:08:45Z</time>
      </trkpt>
      <trkpt lat="43.90342" lon="6.95394">
        <ele>734.5847168</ele>
        <time>2011-10-31T11:08:59Z</time>
      </trkpt>
      <trkpt lat="43.90381" lon="6.95411">
        <ele>733.1425781</ele>
        <time>2011-10-31T11:09:20Z</time>
      </trkpt>
      <trkpt lat="43.90381" lon="6.95411">
        <ele>733.1425781</ele>
        <time>2011-10-31T11:11:55Z</time>
      </trkpt>
      <trkpt lat="43.90334" lon="6.95406">
        <ele>732.1813965</ele>
        <time>2011-10-31T11:12:00Z</time>
      </trkpt>
      <trkpt lat="43.90328" lon="6.95416">
        <ele>729.2971191</ele>
        <time>2011-10-31T11:12:07Z</time>
      </trkpt>
      <trkpt lat="43.90328" lon="6.95416">
        <ele>728.8166504</ele>
        <time>2011-10-31T11:12:15Z</time>
      </trkpt>
      <trkpt lat="43.90316" lon="6.95415">
        <ele>724.4907227</ele>
        <time>2011-10-31T11:12:29Z</time>
      </trkpt>
      <trkpt lat="43.90314" lon="6.95413">
        <ele>724.9714355</ele>
        <time>2011-10-31T11:12:40Z</time>
      </trkpt>
      <trkpt lat="43.90303" lon="6.95415">
        <ele>721.6066895</ele>
        <time>2011-10-31T11:12:45Z</time>
      </trkpt>
      <trkpt lat="43.90295" lon="6.95417">
        <ele>717.7614746</ele>
        <time>2011-10-31T11:12:51Z</time>
      </trkpt>
      <trkpt lat="43.90293" lon="6.95414">
        <ele>717.7614746</ele>
        <time>2011-10-31T11:12:53Z</time>
      </trkpt>
      <trkpt lat="43.90287" lon="6.95398">
        <ele>713.9160156</ele>
        <time>2011-10-31T11:13:00Z</time>
      </trkpt>
      <trkpt lat="43.90278" lon="6.95406">
        <ele>710.5515137</ele>
        <time>2011-10-31T11:13:09Z</time>
      </trkpt>
      <trkpt lat="43.90251" lon="6.95405">
        <ele>705.2644043</ele>
        <time>2011-10-31T11:13:18Z</time>
      </trkpt>
      <trkpt lat="43.90244" lon="6.95404">
        <ele>703.3417969</ele>
        <time>2011-10-31T11:13:20Z</time>
      </trkpt>
      <trkpt lat="43.90239" lon="6.95404">
        <ele>699.9770508</ele>
        <time>2011-10-31T11:13:22Z</time>
      </trkpt>
      <trkpt lat="43.90195" lon="6.95405">
        <ele>699.9770508</ele>
        <time>2011-10-31T11:13:44Z</time>
      </trkpt>
      <trkpt lat="43.90165" lon="6.95399">
        <ele>698.0544434</ele>
        <time>2011-10-31T11:14:37Z</time>
      </trkpt>
      <trkpt lat="43.9015" lon="6.95379">
        <ele>694.6896973</ele>
        <time>2011-10-31T11:14:43Z</time>
      </trkpt>
      <trkpt lat="43.90147" lon="6.95375">
        <ele>694.6896973</ele>
        <time>2011-10-31T11:14:44Z</time>
      </trkpt>
      <trkpt lat="43.90128" lon="6.95352">
        <ele>691.3251953</ele>
        <time>2011-10-31T11:14:49Z</time>
      </trkpt>
      <trkpt lat="43.90122" lon="6.95344">
        <ele>690.3640137</ele>
        <time>2011-10-31T11:14:51Z</time>
      </trkpt>
      <trkpt lat="43.90097" lon="6.95324">
        <ele>686.0380859</ele>
        <time>2011-10-31T11:14:57Z</time>
      </trkpt>
      <trkpt lat="43.90093" lon="6.95324">
        <ele>686.0380859</ele>
        <time>2011-10-31T11:14:58Z</time>
      </trkpt>
      <trkpt lat="43.90084" lon="6.95314">
        <ele>684.5961914</ele>
        <time>2011-10-31T11:15:00Z</time>
      </trkpt>
      <trkpt lat="43.90074" lon="6.95303">
        <ele>682.192627</ele>
        <time>2011-10-31T11:15:03Z</time>
      </trkpt>
      <trkpt lat="43.90086" lon="6.95263">
        <ele>678.828125</ele>
        <time>2011-10-31T11:15:11Z</time>
      </trkpt>
      <trkpt lat="43.90088" lon="6.95244">
        <ele>674.9829102</ele>
        <time>2011-10-31T11:15:15Z</time>
      </trkpt>
      <trkpt lat="43.90068" lon="6.95198">
        <ele>670.6569824</ele>
        <time>2011-10-31T11:15:20Z</time>
      </trkpt>
      <trkpt lat="43.90074" lon="6.95155">
        <ele>665.8503418</ele>
        <time>2011-10-31T11:15:25Z</time>
      </trkpt>
      <trkpt lat="43.90071" lon="6.95147">
        <ele>665.8503418</ele>
        <time>2011-10-31T11:15:26Z</time>
      </trkpt>
      <trkpt lat="43.90068" lon="6.951">
        <ele>660.0822754</ele>
        <time>2011-10-31T11:15:32Z</time>
      </trkpt>
      <trkpt lat="43.90067" lon="6.95093">
        <ele>660.0822754</ele>
        <time>2011-10-31T11:15:33Z</time>
      </trkpt>
      <trkpt lat="43.90062" lon="6.95051">
        <ele>653.8339844</ele>
        <time>2011-10-31T11:15:39Z</time>
      </trkpt>
      <trkpt lat="43.90062" lon="6.95045">
        <ele>653.8339844</ele>
        <time>2011-10-31T11:15:40Z</time>
      </trkpt>
      <trkpt lat="43.90048" lon="6.95013">
        <ele>649.9885254</ele>
        <time>2011-10-31T11:15:47Z</time>
      </trkpt>
      <trkpt lat="43.90029" lon="6.94968">
        <ele>644.7011719</ele>
        <time>2011-10-31T11:15:54Z</time>
      </trkpt>
      <trkpt lat="43.89978" lon="6.94903">
        <ele>640.3754883</ele>
        <time>2011-10-31T11:16:05Z</time>
      </trkpt>
      <trkpt lat="43.89916" lon="6.94914">
        <ele>636.0495605</ele>
        <time>2011-10-31T11:16:12Z</time>
      </trkpt>
      <trkpt lat="43.89931" lon="6.9493">
        <ele>628.8395996</ele>
        <time>2011-10-31T11:16:16Z</time>
      </trkpt>
      <trkpt lat="43.89929" lon="6.94932">
        <ele>628.8395996</ele>
        <time>2011-10-31T11:16:17Z</time>
      </trkpt>
      <trkpt lat="43.89926" lon="6.94935">
        <ele>628.3588867</ele>
        <time>2011-10-31T11:16:19Z</time>
      </trkpt>
      <trkpt lat="43.89907" lon="6.94841">
        <ele>624.5136719</ele>
        <time>2011-10-31T11:16:40Z</time>
      </trkpt>
      <trkpt lat="43.89963" lon="6.94754">
        <ele>622.1103516</ele>
        <time>2011-10-31T11:16:56Z</time>
      </trkpt>
      <trkpt lat="43.9002" lon="6.94714">
        <ele>621.6296387</ele>
        <time>2011-10-31T11:17:10Z</time>
      </trkpt>
      <trkpt lat="43.90025" lon="6.94614">
        <ele>624.5136719</ele>
        <time>2011-10-31T11:17:26Z</time>
      </trkpt>
      <trkpt lat="43.90013" lon="6.94605">
        <ele>623.5524902</ele>
        <time>2011-10-31T11:17:31Z</time>
      </trkpt>
      <trkpt lat="43.89887" lon="6.9454">
        <ele>619.7070313</ele>
        <time>2011-10-31T11:17:57Z</time>
      </trkpt>
      <trkpt lat="43.89838" lon="6.94505">
        <ele>619.7070313</ele>
        <time>2011-10-31T11:18:07Z</time>
      </trkpt>
      <trkpt lat="43.8975" lon="6.94227">
        <ele>616.822998</ele>
        <time>2011-10-31T11:18:47Z</time>
      </trkpt>
      <trkpt lat="43.89731" lon="6.94096">
        <ele>614.4196777</ele>
        <time>2011-10-31T11:19:03Z</time>
      </trkpt>
      <trkpt lat="43.89722" lon="6.93905">
        <ele>611.5358887</ele>
        <time>2011-10-31T11:19:24Z</time>
      </trkpt>
      <trkpt lat="43.89691" lon="6.93813">
        <ele>609.6132813</ele>
        <time>2011-10-31T11:19:45Z</time>
      </trkpt>
      <trkpt lat="43.89691" lon="6.93813">
        <ele>609.6132813</ele>
        <time>2011-10-31T11:39:06Z</time>
      </trkpt>
      <trkpt lat="43.89693" lon="6.93816">
        <ele>611.5358887</ele>
        <time>2011-10-31T11:39:34Z</time>
      </trkpt>
      <trkpt lat="43.89635" lon="6.93752">
        <ele>609.6132813</ele>
        <time>2011-10-31T11:39:54Z</time>
      </trkpt>
      <trkpt lat="43.89539" lon="6.93734">
        <ele>608.1713867</ele>
        <time>2011-10-31T11:40:12Z</time>
      </trkpt>
      <trkpt lat="43.89495" lon="6.93766">
        <ele>606.729248</ele>
        <time>2011-10-31T11:40:23Z</time>
      </trkpt>
      <trkpt lat="43.89414" lon="6.93739">
        <ele>608.6518555</ele>
        <time>2011-10-31T11:40:40Z</time>
      </trkpt>
      <trkpt lat="43.89403" lon="6.93737">
        <ele>608.6518555</ele>
        <time>2011-10-31T11:40:42Z</time>
      </trkpt>
      <trkpt lat="43.89298" lon="6.93722">
        <ele>608.1713867</ele>
        <time>2011-10-31T11:41:02Z</time>
      </trkpt>
      <trkpt lat="43.89241" lon="6.93765">
        <ele>607.6906738</ele>
        <time>2011-10-31T11:41:14Z</time>
      </trkpt>
      <trkpt lat="43.89172" lon="6.93755">
        <ele>608.1713867</ele>
        <time>2011-10-31T11:41:29Z</time>
      </trkpt>
      <trkpt lat="43.89043" lon="6.9384">
        <ele>608.1713867</ele>
        <time>2011-10-31T11:41:59Z</time>
      </trkpt>
      <trkpt lat="43.89031" lon="6.9385">
        <ele>608.1713867</ele>
        <time>2011-10-31T11:42:02Z</time>
      </trkpt>
      <trkpt lat="43.88911" lon="6.93849">
        <ele>608.1713867</ele>
        <time>2011-10-31T11:42:28Z</time>
      </trkpt>
      <trkpt lat="43.88811" lon="6.93894">
        <ele>605.2873535</ele>
        <time>2011-10-31T11:42:46Z</time>
      </trkpt>
      <trkpt lat="43.88747" lon="6.93898">
        <ele>605.2873535</ele>
        <time>2011-10-31T11:42:57Z</time>
      </trkpt>
      <trkpt lat="43.88719" lon="6.9398">
        <ele>606.729248</ele>
        <time>2011-10-31T11:43:12Z</time>
      </trkpt>
      <trkpt lat="43.88693" lon="6.94128">
        <ele>608.6518555</ele>
        <time>2011-10-31T11:43:36Z</time>
      </trkpt>
      <trkpt lat="43.88664" lon="6.94093">
        <ele>610.09375</ele>
        <time>2011-10-31T11:43:44Z</time>
      </trkpt>
      <trkpt lat="43.88653" lon="6.94029">
        <ele>612.4970703</ele>
        <time>2011-10-31T11:43:56Z</time>
      </trkpt>
      <trkpt lat="43.88631" lon="6.93892">
        <ele>616.822998</ele>
        <time>2011-10-31T11:44:25Z</time>
      </trkpt>
      <trkpt lat="43.88599" lon="6.93864">
        <ele>618.7456055</ele>
        <time>2011-10-31T11:44:38Z</time>
      </trkpt>
      <trkpt lat="43.88548" lon="6.93811">
        <ele>621.6296387</ele>
        <time>2011-10-31T11:45:13Z</time>
      </trkpt>
    </trkseg>
  </trk>
</gpx>